| time (UTC) | temp F | wind direction | speed knots | gust knots | rain 1hr in | rain 24hr in | rain mn in | humidity % | barometer mb |
| 20260510104603 | 45 | 71 | 0.0 | 2.6 | 0.00 | 0.32 | 0.00 | 92 | 1013.6 |
| 20260510104424 | 45 | 73 | 0.0 | 2.6 | 0.00 | 0.32 | 0.00 | 92 | 1013.4 |
| 20260510104102 | 45 | 88 | 0.0 | 1.7 | 0.00 | 0.32 | 0.00 | 92 | 1013.4 |
| 20260510103902 | 45 | 0 | 0.0 | 0.0 | 0.00 | 0.32 | 0.00 | 92 | 1013.5 |
| 20260510103403 | 45 | 0 | 0.0 | 0.0 | 0.00 | 0.32 | 0.00 | 92 | 1013.4 |
| 20260510103303 | 45 | 0 | 0.0 | 0.0 | 0.00 | 0.32 | 0.00 | 92 | 1013.5 |
| 20260510103202 | 45 | 0 | 0.0 | 0.0 | 0.00 | 0.32 | 0.00 | 92 | 1013.3 |
| 20260510103103 | 45 | 0 | 0.0 | 0.0 | 0.00 | 0.32 | 0.00 | 92 | 1013.2 |
| 20260510102802 | 45 | 0 | 0.0 | 0.0 | 0.00 | 0.32 | 0.00 | 92 | 1013.1 |
| 20260510102703 | 45 | 0 | 0.0 | 0.0 | 0.00 | 0.32 | 0.00 | 92 | 1013.0 |
| 20260510102503 | 45 | 0 | 0.0 | 0.0 | 0.00 | 0.32 | 0.00 | 92 | 1013.1 |
| 20260510102404 | 45 | 0 | 0.0 | 0.0 | 0.00 | 0.32 | 0.00 | 92 | 1013.0 |
| 20260510102305 | 45 | 0 | 0.0 | 0.0 | 0.00 | 0.32 | 0.00 | 92 | 1013.1 |
| 20260510102202 | 45 | 0 | 0.0 | 0.0 | 0.00 | 0.32 | 0.00 | 92 | 1013.0 |
| 20260510102003 | 45 | 0 | 0.0 | 0.0 | 0.00 | 0.32 | 0.00 | 92 | 1012.9 |
| 20260510101803 | 45 | 0 | 0.0 | 0.0 | 0.00 | 0.32 | 0.00 | 92 | 1013.1 |
| 20260510101702 | 45 | 0 | 0.0 | 0.0 | 0.00 | 0.32 | 0.00 | 93 | 1012.8 |
| 20260510101603 | 45 | 0 | 0.0 | 0.0 | 0.00 | 0.32 | 0.00 | 93 | 1012.9 |
| 20260510101503 | 45 | 0 | 0.0 | 0.0 | 0.00 | 0.32 | 0.00 | 93 | 1012.9 |
| 20260510101302 | 45 | 0 | 0.0 | 0.0 | 0.00 | 0.32 | 0.00 | 93 | 1013.1 |
| 20260510101203 | 45 | 0 | 0.0 | 0.0 | 0.00 | 0.32 | 0.00 | 93 | 1013.0 |
| 20260510101103 | 45 | 0 | 0.0 | 0.0 | 0.00 | 0.32 | 0.00 | 93 | 1013.1 |
| 20260510100903 | 45 | 0 | 0.0 | 0.0 | 0.00 | 0.32 | 0.00 | 93 | 1013.0 |
| 20260510100802 | 45 | 0 | 0.0 | 0.0 | 0.00 | 0.32 | 0.00 | 93 | 1013.2 |
| 20260510100603 | 45 | 94 | 0.0 | 0.9 | 0.00 | 0.32 | 0.00 | 93 | 1013.0 |
| 20260510100402 | 45 | 79 | 0.0 | 1.7 | 0.00 | 0.32 | 0.00 | 93 | 1012.9 |
| 20260510100202 | 45 | 83 | 0.0 | 1.7 | 0.00 | 0.32 | 0.00 | 93 | 1012.8 |
| 20260510095923 | 45 | 83 | 0.9 | 1.7 | 0.00 | 0.32 | 0.00 | 94 | 1012.7 |
| 20260510095802 | 45 | 83 | 0.9 | 1.7 | 0.00 | 0.32 | 0.00 | 94 | 1012.8 |
| 20260510095723 | 45 | 83 | 0.9 | 1.7 | 0.00 | 0.32 | 0.00 | 94 | 1012.7 |
| 20260510095602 | 45 | 82 | 0.9 | 1.7 | 0.00 | 0.32 | 0.00 | 94 | 1012.5 |
| 20260510095305 | 45 | 86 | 0.0 | 1.7 | 0.00 | 0.32 | 0.00 | 94 | 1012.5 |
| 20260510095102 | 45 | 84 | 0.0 | 1.7 | 0.00 | 0.32 | 0.00 | 94 | 1012.8 |
| 20260510094902 | 45 | 85 | 0.0 | 0.9 | 0.00 | 0.32 | 0.00 | 94 | 1012.7 |
| 20260510094503 | 45 | 85 | 0.0 | 0.9 | 0.00 | 0.32 | 0.00 | 94 | 1012.8 |
| 20260510094303 | 45 | 85 | 0.0 | 0.9 | 0.00 | 0.32 | 0.00 | 94 | 1012.8 |
| 20260510094003 | 45 | 85 | 0.0 | 0.9 | 0.00 | 0.32 | 0.00 | 94 | 1012.9 |
| 20260510093803 | 45 | 88 | 0.0 | 0.9 | 0.00 | 0.32 | 0.00 | 94 | 1012.6 |
| 20260510093603 | 45 | 88 | 0.0 | 0.9 | 0.00 | 0.32 | 0.00 | 94 | 1012.6 |
| 20260510093424 | 45 | 88 | 0.0 | 0.9 | 0.00 | 0.32 | 0.00 | 94 | 1012.5 |
| 20260510093303 | 45 | 88 | 0.0 | 0.9 | 0.00 | 0.32 | 0.00 | 94 | 1012.5 |
| 20260510093103 | 45 | 97 | 0.0 | 0.9 | 0.00 | 0.32 | 0.00 | 94 | 1012.6 |
| 20260510093024 | 45 | 97 | 0.0 | 0.9 | 0.00 | 0.32 | 0.00 | 94 | 1012.5 |
| 20260510092903 | 45 | 0 | 0.0 | 0.0 | 0.00 | 0.32 | 0.00 | 94 | 1012.5 |
| 20260510092824 | 45 | 0 | 0.0 | 0.0 | 0.00 | 0.32 | 0.00 | 94 | 1012.5 |
| 20260510092703 | 45 | 0 | 0.0 | 0.0 | 0.00 | 0.32 | 0.00 | 94 | 1012.3 |
| 20260510092103 | 45 | 0 | 0.0 | 0.0 | 0.00 | 0.32 | 0.00 | 94 | 1012.3 |
| 20260510091903 | 45 | 0 | 0.0 | 0.0 | 0.00 | 0.32 | 0.00 | 94 | 1012.4 |
| 20260510091802 | 45 | 0 | 0.0 | 0.0 | 0.00 | 0.32 | 0.00 | 94 | 1012.3 |
| 20260510091624 | 45 | 0 | 0.0 | 0.0 | 0.00 | 0.32 | 0.00 | 94 | 1012.4 |
| 20260510091503 | 45 | 0 | 0.0 | 0.0 | 0.00 | 0.32 | 0.00 | 93 | 1012.3 |
| 20260510091402 | 45 | 0 | 0.0 | 0.0 | 0.00 | 0.32 | 0.00 | 93 | 1012.3 |
| 20260510091202 | 45 | 0 | 0.0 | 0.0 | 0.00 | 0.32 | 0.00 | 93 | 1012.0 |
| 20260510091103 | 45 | 0 | 0.0 | 0.0 | 0.00 | 0.32 | 0.00 | 93 | 1012.3 |
| 20260510090924 | 45 | 0 | 0.0 | 0.0 | 0.00 | 0.32 | 0.00 | 93 | 1012.0 |
| 20260510090723 | 45 | 0 | 0.0 | 0.0 | 0.00 | 0.32 | 0.00 | 93 | 1012.0 |
| 20260510090602 | 45 | 0 | 0.0 | 0.0 | 0.00 | 0.32 | 0.00 | 93 | 1011.9 |
| 20260510090402 | 45 | 0 | 0.0 | 0.0 | 0.00 | 0.32 | 0.00 | 93 | 1011.8 |
| 20260510090302 | 45 | 0 | 0.0 | 0.0 | 0.00 | 0.32 | 0.00 | 93 | 1011.8 |
| 20260510090003 | 46 | 0 | 0.0 | 0.0 | 0.00 | 0.32 | 0.00 | 93 | 1011.8 |
| 20260510085924 | 46 | 0 | 0.0 | 0.0 | 0.00 | 0.32 | 0.00 | 93 | 1011.8 |
| 20260510085803 | 46 | 0 | 0.0 | 0.0 | 0.00 | 0.32 | 0.00 | 93 | 1011.7 |
| 20260510085602 | 46 | 0 | 0.0 | 0.0 | 0.00 | 0.32 | 0.00 | 93 | 1011.8 |
| 20260510085503 | 46 | 0 | 0.0 | 0.0 | 0.00 | 0.32 | 0.00 | 92 | 1011.6 |
| 20260510085402 | 46 | 0 | 0.0 | 0.0 | 0.00 | 0.32 | 0.00 | 92 | 1011.5 |
| 20260510084903 | 46 | 0 | 0.0 | 0.0 | 0.00 | 0.32 | 0.00 | 91 | 1011.7 |
| 20260510084503 | 46 | 0 | 0.0 | 0.0 | 0.00 | 0.32 | 0.00 | 91 | 1011.7 |
| 20260510083903 | 47 | 0 | 0.0 | 0.0 | 0.00 | 0.32 | 0.00 | 91 | 1011.5 |
| 20260510083502 | 47 | 0 | 0.0 | 0.0 | 0.00 | 0.32 | 0.00 | 90 | 1011.3 |
| 20260510083403 | 47 | 0 | 0.0 | 0.0 | 0.00 | 0.32 | 0.00 | 90 | 1011.3 |
| 20260510083303 | 47 | 0 | 0.0 | 0.0 | 0.00 | 0.32 | 0.00 | 90 | 1011.4 |
| 20260510082903 | 47 | 0 | 0.0 | 0.0 | 0.00 | 0.32 | 0.00 | 89 | 1011.5 |
| 20260510082603 | 47 | 0 | 0.0 | 0.0 | 0.00 | 0.32 | 0.00 | 88 | 1011.6 |
| 20260510082423 | 47 | 0 | 0.0 | 0.0 | 0.00 | 0.32 | 0.00 | 88 | 1011.4 |
| 20260510082324 | 48 | 0 | 0.0 | 0.0 | 0.00 | 0.32 | 0.00 | 88 | 1011.6 |
| 20260510082203 | 48 | 0 | 0.0 | 0.0 | 0.00 | 0.32 | 0.00 | 88 | 1011.4 |
| 20260510082102 | 48 | 0 | 0.0 | 0.0 | 0.00 | 0.32 | 0.00 | 87 | 1011.4 |
| 20260510081703 | 48 | 0 | 0.0 | 0.0 | 0.00 | 0.32 | 0.00 | 86 | 1011.5 |
| 20260510081603 | 48 | 0 | 0.0 | 0.0 | 0.00 | 0.32 | 0.00 | 87 | 1011.3 |
| 20260510081402 | 48 | 0 | 0.0 | 0.0 | 0.00 | 0.32 | 0.00 | 86 | 1011.5 |
| 20260510081302 | 48 | 0 | 0.0 | 0.0 | 0.00 | 0.32 | 0.00 | 86 | 1011.3 |
| 20260510081103 | 48 | 0 | 0.0 | 0.0 | 0.00 | 0.32 | 0.00 | 86 | 1011.1 |
| 20260510081003 | 48 | 0 | 0.0 | 0.0 | 0.00 | 0.32 | 0.00 | 85 | 1011.3 |
| 20260510080824 | 48 | 0 | 0.0 | 0.0 | 0.00 | 0.32 | 0.00 | 84 | 1011.2 |
| 20260510080203 | 49 | 0 | 0.0 | 0.0 | 0.00 | 0.32 | 0.00 | 83 | 1011.2 |
| 20260510080003 | 49 | 101 | 0.0 | 0.9 | 0.00 | 0.32 | 0.00 | 82 | 1010.9 |
| 20260510075703 | 49 | 89 | 0.0 | 0.9 | 0.00 | 0.32 | 0.00 | 81 | 1010.8 |
| 20260510075603 | 49 | 89 | 0.0 | 0.9 | 0.00 | 0.32 | 0.00 | 81 | 1010.8 |
| 20260510075403 | 49 | 89 | 0.0 | 1.7 | 0.00 | 0.32 | 0.00 | 80 | 1011.0 |
| 20260510075306 | 49 | 88 | 0.0 | 1.7 | 0.00 | 0.32 | 0.00 | 80 | 1010.8 |
| 20260510075103 | 50 | 88 | 0.0 | 1.7 | 0.00 | 0.32 | 0.00 | 80 | 1010.8 |
| 20260510074903 | 50 | 86 | 0.0 | 1.7 | 0.00 | 0.32 | 0.00 | 80 | 1010.9 |
| 20260510074703 | 50 | 86 | 0.0 | 1.7 | 0.00 | 0.32 | 0.00 | 80 | 1010.8 |
| 20260510074503 | 50 | 81 | 0.9 | 1.7 | 0.00 | 0.32 | 0.00 | 79 | 1010.9 |
| 20260510074403 | 50 | 76 | 0.9 | 2.6 | 0.00 | 0.32 | 0.00 | 79 | 1010.7 |
| 20260510074103 | 50 | 64 | 0.9 | 3.5 | 0.00 | 0.32 | 0.00 | 79 | 1010.8 |
| 20260510074002 | 50 | 65 | 0.9 | 3.5 | 0.00 | 0.32 | 0.00 | 79 | 1010.7 |
| 20260510073703 | 51 | 61 | 0.9 | 3.5 | 0.00 | 0.32 | 0.00 | 78 | 1010.6 |
| 20260510073602 | 51 | 62 | 0.9 | 3.5 | 0.00 | 0.32 | 0.00 | 79 | 1010.4 |
| 20260510073102 | 51 | 53 | 0.9 | 6.1 | 0.00 | 0.32 | 0.00 | 79 | 1010.6 |
| 20260510072902 | 51 | 54 | 0.9 | 6.1 | 0.00 | 0.32 | 0.00 | 79 | 1010.5 |
| 20260510072424 | 51 | 46 | 0.9 | 6.1 | 0.00 | 0.32 | 0.00 | 79 | 1010.5 |
| 20260510072203 | 51 | 64 | 0.9 | 3.5 | 0.00 | 0.32 | 0.00 | 81 | 1010.5 |
| 20260510072102 | 51 | 59 | 0.9 | 3.5 | 0.00 | 0.32 | 0.00 | 81 | 1010.4 |
| 20260510072003 | 50 | 59 | 0.9 | 3.5 | 0.00 | 0.32 | 0.00 | 81 | 1010.5 |
| 20260510071903 | 50 | 59 | 0.9 | 3.5 | 0.00 | 0.32 | 0.00 | 81 | 1010.5 |
| 20260510071603 | 50 | 55 | 0.9 | 2.6 | 0.00 | 0.32 | 0.00 | 82 | 1010.3 |
| 20260510071503 | 50 | 56 | 0.9 | 3.5 | 0.00 | 0.32 | 0.00 | 82 | 1010.3 |
| 20260510071303 | 50 | 61 | 0.9 | 5.2 | 0.00 | 0.32 | 0.00 | 82 | 1010.4 |
| 20260510070903 | 51 | 48 | 0.9 | 5.2 | 0.00 | 0.32 | 0.00 | 82 | 1010.3 |
| 20260510070624 | 51 | 46 | 0.9 | 5.2 | 0.00 | 0.32 | 0.00 | 82 | 1010.4 |
| 20260510070302 | 50 | 42 | 0.9 | 3.5 | 0.00 | 0.32 | 0.00 | 83 | 1010.3 |
| 20260510070202 | 51 | 51 | 0.9 | 2.6 | 0.00 | 0.32 | 0.00 | 84 | 1010.3 |
| 20260510070003 | 51 | 62 | 0.9 | 2.6 | 0.00 | 0.32 | 0.00 | 83 | 1010.3 |
| 20260510065902 | 51 | 57 | 0.9 | 3.5 | 0.00 | 0.32 | 0.00 | 83 | 1010.2 |
| 20260510065802 | 51 | 54 | 1.7 | 3.5 | 0.00 | 0.32 | 0.00 | 83 | 1010.1 |
| 20260510065306 | 51 | 68 | 1.7 | 6.1 | 0.00 | 0.32 | 0.00 | 83 | 1010.1 |
| 20260510065202 | 50 | 68 | 1.7 | 6.1 | 0.00 | 0.32 | 0.00 | 83 | 1009.9 |
| 20260510064902 | 50 | 76 | 0.9 | 6.1 | 0.00 | 0.33 | 0.00 | 84 | 1009.9 |
| 20260510064803 | 50 | 85 | 0.9 | 6.1 | 0.00 | 0.33 | 0.00 | 85 | 1009.9 |
| 20260510064603 | 51 | 85 | 0.9 | 5.2 | 0.00 | 0.33 | 0.00 | 85 | 1010.0 |
| 20260510064303 | 51 | 87 | 0.9 | 2.6 | 0.00 | 0.33 | 0.00 | 86 | 1009.9 |
| 20260510064203 | 51 | 83 | 0.9 | 2.6 | 0.00 | 0.33 | 0.00 | 86 | 1009.9 |
| 20260510064103 | 51 | 87 | 0.9 | 3.5 | 0.00 | 0.33 | 0.00 | 86 | 1009.9 |
| 20260510064003 | 51 | 85 | 0.9 | 6.1 | 0.00 | 0.33 | 0.00 | 86 | 1010.0 |
| 20260510063924 | 51 | 86 | 0.9 | 6.1 | 0.00 | 0.33 | 0.00 | 86 | 1009.9 |
| 20260510063803 | 51 | 83 | 0.9 | 6.1 | 0.00 | 0.33 | 0.00 | 86 | 1009.9 |
| 20260510063603 | 51 | 81 | 1.7 | 6.1 | 0.00 | 0.33 | 0.00 | 87 | 1010.0 |
| 20260510063403 | 51 | 74 | 1.7 | 6.1 | 0.00 | 0.33 | 0.00 | 87 | 1010.0 |
| 20260510063224 | 51 | 65 | 1.7 | 6.1 | 0.00 | 0.33 | 0.00 | 88 | 1010.0 |
| 20260510062803 | 52 | 51 | 1.7 | 5.2 | 0.00 | 0.33 | 0.00 | 89 | 1010.0 |
| 20260510062703 | 52 | 50 | 1.7 | 5.2 | 0.00 | 0.33 | 0.00 | 89 | 1009.9 |
| 20260510062603 | 52 | 48 | 1.7 | 5.2 | 0.00 | 0.33 | 0.00 | 89 | 1009.9 |
| 20260510062503 | 52 | 50 | 1.7 | 5.2 | 0.00 | 0.33 | 0.00 | 89 | 1010.0 |
| 20260510062306 | 52 | 51 | 1.7 | 5.2 | 0.00 | 0.33 | 0.00 | 89 | 1009.9 |
| 20260510062103 | 52 | 51 | 1.7 | 5.2 | 0.00 | 0.33 | 0.00 | 89 | 1009.9 |
| 20260510062002 | 52 | 56 | 1.7 | 5.2 | 0.00 | 0.33 | 0.00 | 90 | 1009.9 |
| 20260510061903 | 52 | 56 | 1.7 | 5.2 | 0.00 | 0.33 | 0.00 | 90 | 1009.9 |
| 20260510061824 | 52 | 50 | 1.7 | 5.2 | 0.00 | 0.33 | 0.00 | 90 | 1009.8 |
| 20260510061702 | 52 | 47 | 1.7 | 5.2 | 0.00 | 0.33 | 0.00 | 90 | 1010.0 |
| 20260510061603 | 52 | 45 | 1.7 | 5.2 | 0.00 | 0.33 | 0.00 | 90 | 1010.0 |
| 20260510061423 | 52 | 43 | 1.7 | 5.2 | 0.00 | 0.33 | 0.00 | 90 | 1009.9 |
| 20260510061303 | 53 | 44 | 1.7 | 5.2 | 0.00 | 0.33 | 0.00 | 90 | 1010.0 |
| 20260510061002 | 53 | 47 | 1.7 | 5.2 | 0.00 | 0.34 | 0.00 | 90 | 1009.8 |
| 20260510060903 | 53 | 51 | 1.7 | 5.2 | 0.00 | 0.34 | 0.00 | 90 | 1009.7 |
| 20260510060803 | 53 | 62 | 1.7 | 3.5 | 0.00 | 0.34 | 0.00 | 91 | 1009.9 |
| 20260510060602 | 53 | 59 | 1.7 | 3.5 | 0.00 | 0.34 | 0.00 | 90 | 1009.8 |
| 20260510060323 | 53 | 69 | 1.7 | 2.6 | 0.00 | 0.34 | 0.00 | 91 | 1009.7 |
| 20260510055903 | 53 | 63 | 0.9 | 2.6 | 0.00 | 0.34 | 0.00 | 90 | 1009.9 |
| 20260510055802 | 53 | 64 | 0.9 | 2.6 | 0.00 | 0.34 | 0.00 | 90 | 1009.5 |
| 20260510055703 | 53 | 66 | 0.9 | 2.6 | 0.00 | 0.34 | 0.00 | 90 | 1009.8 |
| 20260510055603 | 53 | 72 | 0.9 | 2.6 | 0.00 | 0.35 | 0.00 | 90 | 1009.6 |
| 20260510055403 | 53 | 66 | 0.9 | 5.2 | 0.00 | 0.36 | 0.00 | 90 | 1009.7 |
| 20260510055124 | 53 | 51 | 0.9 | 5.2 | 0.00 | 0.39 | 0.00 | 90 | 1009.5 |
| 20260510054824 | 54 | 29 | 1.7 | 6.1 | 0.00 | 0.40 | 0.00 | 90 | 1009.4 |
| 20260510054603 | 54 | 28 | 2.6 | 6.1 | 0.00 | 0.41 | 0.00 | 90 | 1009.8 |
| 20260510054524 | 54 | 28 | 2.6 | 6.1 | 0.00 | 0.41 | 0.00 | 90 | 1009.6 |
| 20260510054423 | 54 | 27 | 2.6 | 6.1 | 0.00 | 0.41 | 0.00 | 90 | 1009.5 |
| 20260510054303 | 54 | 33 | 2.6 | 6.1 | 0.00 | 0.41 | 0.00 | 90 | 1009.7 |
| 20260510054202 | 54 | 32 | 2.6 | 6.1 | 0.00 | 0.41 | 0.00 | 90 | 1009.7 |
| 20260510054102 | 54 | 35 | 2.6 | 6.1 | 0.00 | 0.41 | 0.00 | 90 | 1009.7 |
| 20260510054003 | 54 | 44 | 2.6 | 6.1 | 0.00 | 0.41 | 0.00 | 90 | 1009.4 |
| 20260510053603 | 54 | 26 | 2.6 | 9.6 | 0.00 | 0.41 | 0.00 | 91 | 1009.6 |
| 20260510053503 | 54 | 25 | 2.6 | 9.6 | 0.00 | 0.41 | 0.00 | 91 | 1009.4 |
| 20260510053424 | 54 | 27 | 2.6 | 9.6 | 0.00 | 0.41 | 0.00 | 91 | 1009.6 |
| 20260510053003 | 54 | 12 | 1.7 | 9.6 | 0.00 | 0.41 | 0.00 | 92 | 1009.2 |
| 20260510052902 | 54 | 10 | 1.7 | 9.6 | 0.00 | 0.41 | 0.00 | 92 | 1009.5 |
| 20260510052803 | 54 | 6 | 1.7 | 9.6 | 0.00 | 0.41 | 0.00 | 92 | 1009.5 |
| 20260510052602 | 54 | 85 | 0.0 | 3.5 | 0.00 | 0.41 | 0.00 | 93 | 1009.5 |
| 20260510052423 | 54 | 111 | 0.0 | 3.5 | 0.00 | 0.41 | 0.00 | 93 | 1009.7 |
| 20260510052306 | 54 | 127 | 0.0 | 1.7 | 0.00 | 0.41 | 0.00 | 93 | 1009.6 |
| 20260510052124 | 54 | 107 | 0.9 | 2.6 | 0.00 | 0.41 | 0.00 | 94 | 1009.5 |
| 20260510051803 | 54 | 71 | 0.9 | 2.6 | 0.00 | 0.41 | 0.00 | 94 | 1009.5 |
| 20260510051702 | 54 | 73 | 0.9 | 2.6 | 0.00 | 0.41 | 0.00 | 94 | 1009.2 |
| 20260510051602 | 54 | 73 | 0.9 | 2.6 | 0.00 | 0.41 | 0.00 | 94 | 1009.5 |
| 20260510051403 | 54 | 37 | 0.9 | 5.2 | 0.00 | 0.42 | 0.00 | 94 | 1009.5 |
| 20260510051203 | 54 | 27 | 1.7 | 5.2 | 0.00 | 0.42 | 0.00 | 94 | 1009.3 |
| 20260510051123 | 54 | 22 | 1.7 | 5.2 | 0.00 | 0.42 | 0.00 | 94 | 1009.2 |
| 20260510050802 | 53 | 21 | 2.6 | 6.1 | 0.00 | 0.42 | 0.00 | 94 | 1008.9 |
| 20260510050503 | 53 | 35 | 2.6 | 6.1 | 0.00 | 0.42 | 0.00 | 94 | 1008.9 |
| 20260510050403 | 53 | 52 | 1.7 | 6.1 | 0.00 | 0.42 | 0.00 | 94 | 1009.3 |
| 20260510050303 | 53 | 58 | 1.7 | 6.1 | 0.00 | 0.42 | 0.00 | 94 | 1009.2 |
| 20260510050203 | 53 | 71 | 1.7 | 6.1 | 0.00 | 0.42 | 0.00 | 94 | 1009.3 |
| 20260510045703 | 53 | 135 | 0.9 | 5.2 | 0.00 | 0.42 | 0.00 | 94 | 1008.2 |
| 20260510045603 | 53 | 130 | 0.9 | 2.6 | 0.00 | 0.42 | 0.00 | 94 | 1008.1 |
| 20260510045503 | 53 | 127 | 0.9 | 2.6 | 0.00 | 0.43 | 0.00 | 94 | 1008.2 |
| 20260510045306 | 53 | 126 | 0.9 | 2.6 | 0.00 | 0.43 | 0.00 | 94 | 1007.9 |
| 20260510045203 | 53 | 126 | 0.9 | 2.6 | 0.00 | 0.43 | 0.00 | 94 | 1007.9 |
| 20260510044903 | 53 | 124 | 0.9 | 2.6 | 0.01 | 0.44 | 0.00 | 94 | 1007.9 |
| 20260510044802 | 54 | 127 | 0.9 | 3.5 | 0.01 | 0.44 | 0.00 | 94 | 1007.8 |
| 20260510044703 | 54 | 129 | 1.7 | 3.5 | 0.01 | 0.44 | 0.00 | 94 | 1007.9 |
| 20260510044602 | 54 | 129 | 0.9 | 3.5 | 0.01 | 0.44 | 0.00 | 94 | 1007.8 |
| 20260510044524 | 54 | 131 | 1.7 | 3.5 | 0.01 | 0.44 | 0.00 | 94 | 1007.8 |
| 20260510044103 | 53 | 129 | 0.9 | 3.5 | 0.01 | 0.44 | 0.00 | 94 | 1007.9 |
| 20260510043503 | 53 | 119 | 0.9 | 1.7 | 0.01 | 0.44 | 0.00 | 94 | 1007.8 |
| 20260510043403 | 53 | 118 | 0.9 | 1.7 | 0.01 | 0.44 | 0.00 | 93 | 1007.7 |
| 20260510043303 | 53 | 117 | 0.0 | 1.7 | 0.01 | 0.44 | 0.00 | 93 | 1007.8 |
| 20260510042903 | 53 | 115 | 0.0 | 1.7 | 0.01 | 0.45 | 0.00 | 93 | 1007.6 |
| 20260510042703 | 54 | 117 | 0.0 | 1.7 | 0.01 | 0.45 | 0.00 | 93 | 1007.3 |
| 20260510042403 | 54 | 121 | 0.0 | 1.7 | 0.02 | 0.46 | 0.00 | 92 | 1007.5 |
| 20260510042305 | 54 | 120 | 0.0 | 1.7 | 0.02 | 0.46 | 0.00 | 92 | 1007.6 |
| 20260510042203 | 54 | 121 | 0.0 | 1.7 | 0.02 | 0.46 | 0.00 | 92 | 1007.8 |
| 20260510042103 | 54 | 120 | 0.0 | 1.7 | 0.02 | 0.46 | 0.00 | 92 | 1007.6 |
| 20260510041902 | 54 | 117 | 0.0 | 1.7 | 0.02 | 0.46 | 0.00 | 92 | 1007.7 |
| 20260510041624 | 54 | 115 | 0.0 | 1.7 | 0.02 | 0.46 | 0.00 | 91 | 1007.5 |
| 20260510041103 | 55 | 125 | 0.0 | 2.6 | 0.02 | 0.47 | 0.00 | 90 | 1007.5 |
| 20260510040802 | 55 | 143 | 0.9 | 7.0 | 0.02 | 0.47 | 0.00 | 90 | 1007.5 |
| 20260510040703 | 55 | 147 | 0.9 | 7.0 | 0.02 | 0.47 | 0.00 | 89 | 1007.4 |
| 20260510040524 | 55 | 152 | 0.9 | 7.0 | 0.02 | 0.47 | 0.00 | 89 | 1007.5 |
| 20260510040403 | 55 | 149 | 1.7 | 7.0 | 0.02 | 0.47 | 0.00 | 89 | 1007.5 |
| 20260510040302 | 55 | 152 | 1.7 | 7.0 | 0.02 | 0.47 | 0.00 | 89 | 1007.4 |
| 20260510035803 | 55 | 156 | 1.7 | 7.0 | 0.02 | 0.47 | 0.47 | 90 | 1007.6 |
| 20260510035603 | 55 | 145 | 1.7 | 5.2 | 0.02 | 0.47 | 0.47 | 91 | 1007.6 |
| 20260510035503 | 55 | 144 | 1.7 | 5.2 | 0.02 | 0.47 | 0.47 | 91 | 1007.6 |
| 20260510035306 | 55 | 143 | 1.7 | 5.2 | 0.02 | 0.47 | 0.47 | 92 | 1007.8 |
| 20260510035103 | 55 | 145 | 1.7 | 5.2 | 0.02 | 0.47 | 0.47 | 91 | 1007.7 |
| 20260510034802 | 55 | 139 | 1.7 | 5.2 | 0.01 | 0.47 | 0.46 | 91 | 1008.0 |
| 20260510034702 | 55 | 140 | 1.7 | 5.2 | 0.01 | 0.47 | 0.46 | 91 | 1007.8 |
| 20260510034103 | 55 | 140 | 0.9 | 5.2 | 0.01 | 0.47 | 0.46 | 90 | 1007.7 |
| 20260510033803 | 55 | 143 | 0.9 | 5.2 | 0.01 | 0.47 | 0.46 | 90 | 1007.7 |
| 20260510033703 | 55 | 147 | 0.9 | 5.2 | 0.01 | 0.47 | 0.46 | 90 | 1007.8 |
| 20260510033603 | 55 | 148 | 1.7 | 5.2 | 0.01 | 0.47 | 0.46 | 89 | 1007.5 |
| 20260510033402 | 55 | 150 | 1.7 | 5.2 | 0.02 | 0.47 | 0.46 | 89 | 1008.0 |
| 20260510032903 | 55 | 148 | 1.7 | 5.2 | 0.04 | 0.47 | 0.46 | 89 | 1007.9 |
| 20260510032603 | 55 | 153 | 1.7 | 5.2 | 0.04 | 0.47 | 0.46 | 89 | 1007.8 |
| 20260510032403 | 55 | 154 | 1.7 | 3.5 | 0.03 | 0.46 | 0.45 | 89 | 1007.9 |
| 20260510032306 | 55 | 155 | 1.7 | 3.5 | 0.03 | 0.46 | 0.45 | 89 | 1007.7 |
| 20260510032103 | 55 | 155 | 1.7 | 3.5 | 0.03 | 0.47 | 0.45 | 89 | 1007.7 |
| 20260510032003 | 55 | 155 | 1.7 | 3.5 | 0.03 | 0.47 | 0.45 | 89 | 1007.6 |
| 20260510031703 | 54 | 146 | 1.7 | 3.5 | 0.03 | 0.47 | 0.45 | 91 | 1007.8 |
| 20260510031103 | 54 | 115 | 0.0 | 3.5 | 0.03 | 0.47 | 0.45 | 92 | 1007.6 |
| 20260510030803 | 54 | 110 | 0.0 | 1.7 | 0.03 | 0.48 | 0.45 | 92 | 1007.5 |
| 20260510030603 | 54 | 113 | 0.0 | 1.7 | 0.03 | 0.48 | 0.45 | 92 | 1007.5 |
| 20260510030403 | 54 | 114 | 0.9 | 1.7 | 0.03 | 0.48 | 0.45 | 92 | 1007.4 |
| 20260510030302 | 54 | 115 | 0.9 | 1.7 | 0.03 | 0.48 | 0.45 | 92 | 1007.4 |
| 20260510030203 | 54 | 115 | 0.9 | 1.7 | 0.04 | 0.48 | 0.45 | 92 | 1007.5 |
| 20260510025824 | 54 | 117 | 0.9 | 1.7 | 0.04 | 0.48 | 0.45 | 91 | 1007.3 |
| 20260510025703 | 54 | 118 | 0.9 | 1.7 | 0.04 | 0.48 | 0.45 | 91 | 1007.5 |
| 20260510025403 | 55 | 117 | 0.0 | 1.7 | 0.04 | 0.48 | 0.45 | 91 | 1007.5 |
| 20260510025305 | 55 | 116 | 0.0 | 1.7 | 0.04 | 0.48 | 0.45 | 90 | 1007.5 |
| 20260510025202 | 55 | 119 | 0.9 | 3.5 | 0.04 | 0.48 | 0.45 | 90 | 1007.4 |
| 20260510024803 | 55 | 181 | 1.7 | 9.6 | 0.04 | 0.48 | 0.45 | 90 | 1007.2 |
| 20260510024703 | 55 | 199 | 1.7 | 9.6 | 0.04 | 0.48 | 0.45 | 90 | 1007.3 |
| 20260510024603 | 55 | 201 | 1.7 | 9.6 | 0.04 | 0.48 | 0.45 | 89 | 1007.6 |
| 20260510024402 | 55 | 201 | 3.5 | 9.6 | 0.04 | 0.48 | 0.45 | 89 | 1007.7 |
| 20260510024324 | 55 | 202 | 3.5 | 9.6 | 0.04 | 0.48 | 0.45 | 89 | 1007.7 |
| 20260510024203 | 55 | 202 | 3.5 | 9.6 | 0.04 | 0.48 | 0.45 | 89 | 1007.9 |
| 20260510024103 | 55 | 197 | 3.5 | 9.6 | 0.04 | 0.48 | 0.45 | 90 | 1008.0 |
| 20260510023823 | 55 | 191 | 3.5 | 9.6 | 0.04 | 0.48 | 0.45 | 91 | 1008.0 |
| 20260510023603 | 54 | 183 | 3.5 | 9.6 | 0.04 | 0.48 | 0.45 | 92 | 1008.0 |
| 20260510023503 | 54 | 179 | 3.5 | 9.6 | 0.04 | 0.48 | 0.45 | 93 | 1008.0 |
| 20260510023203 | 54 | 163 | 2.6 | 7.8 | 0.03 | 0.47 | 0.44 | 94 | 1008.1 |
| 20260510023103 | 54 | 164 | 1.7 | 7.8 | 0.02 | 0.46 | 0.43 | 94 | 1008.2 |
| 20260510023003 | 54 | 162 | 1.7 | 7.8 | 0.01 | 0.45 | 0.42 | 95 | 1008.6 |
| 20260510022703 | 54 | 170 | 0.9 | 7.8 | 0.01 | 0.45 | 0.42 | 95 | 1008.2 |
| 20260510022602 | 54 | 167 | 0.9 | 7.8 | 0.01 | 0.45 | 0.42 | 95 | 1008.1 |
| 20260510022403 | 54 | 144 | 0.0 | 1.7 | 0.01 | 0.45 | 0.42 | 95 | 1007.9 |
| 20260510022002 | 54 | 118 | 0.0 | 0.9 | 0.01 | 0.45 | 0.42 | 95 | 1007.4 |
| 20260510021924 | 54 | 118 | 0.0 | 1.7 | 0.01 | 0.45 | 0.42 | 95 | 1007.4 |
| 20260510021503 | 54 | 119 | 0.9 | 2.6 | 0.01 | 0.45 | 0.42 | 95 | 1007.2 |
| 20260510021402 | 54 | 120 | 0.9 | 2.6 | 0.01 | 0.45 | 0.42 | 95 | 1007.2 |
| 20260510021303 | 54 | 120 | 0.9 | 2.6 | 0.01 | 0.45 | 0.42 | 95 | 1007.2 |
| 20260510021103 | 54 | 123 | 0.9 | 2.6 | 0.01 | 0.45 | 0.42 | 95 | 1007.2 |
| 20260510021003 | 54 | 123 | 0.9 | 2.6 | 0.01 | 0.45 | 0.42 | 95 | 1007.1 |
| 20260510020903 | 54 | 122 | 0.9 | 2.6 | 0.01 | 0.45 | 0.42 | 95 | 1007.2 |
| 20260510020603 | 54 | 123 | 0.9 | 2.6 | 0.01 | 0.45 | 0.42 | 95 | 1007.2 |
| 20260510020303 | 54 | 122 | 0.9 | 2.6 | 0.01 | 0.45 | 0.42 | 95 | 1007.3 |
| 20260510015902 | 54 | 115 | 0.0 | 1.7 | 0.00 | 0.44 | 0.41 | 95 | 1007.4 |
| 20260510015724 | 54 | 112 | 0.0 | 0.9 | 0.00 | 0.44 | 0.41 | 94 | 1007.4 |
| 20260510015603 | 54 | 123 | 0.0 | 1.7 | 0.00 | 0.44 | 0.41 | 94 | 1007.5 |
| 20260510015103 | 54 | 123 | 0.9 | 2.6 | 0.00 | 0.44 | 0.41 | 94 | 1007.1 |
| 20260510014923 | 54 | 122 | 0.9 | 2.6 | 0.00 | 0.44 | 0.41 | 94 | 1007.2 |
| 20260510014802 | 54 | 122 | 0.9 | 2.6 | 0.00 | 0.44 | 0.41 | 94 | 1007.2 |
| 20260510014624 | 54 | 120 | 0.9 | 2.6 | 0.00 | 0.44 | 0.41 | 94 | 1007.2 |
| 20260510014403 | 54 | 117 | 0.9 | 2.6 | 0.00 | 0.44 | 0.41 | 94 | 1007.1 |
| 20260510014203 | 54 | 117 | 0.9 | 2.6 | 0.00 | 0.44 | 0.41 | 94 | 1006.9 |
| 20260510014102 | 54 | 118 | 0.9 | 2.6 | 0.00 | 0.44 | 0.41 | 94 | 1007.1 |
| 20260510014024 | 54 | 119 | 0.9 | 2.6 | 0.00 | 0.44 | 0.41 | 94 | 1007.2 |
| 20260510013903 | 54 | 116 | 0.9 | 2.6 | 0.00 | 0.44 | 0.41 | 94 | 1007.5 |
| 20260510013803 | 54 | 115 | 0.9 | 2.6 | 0.00 | 0.44 | 0.41 | 94 | 1007.2 |
| 20260510013103 | 54 | 111 | 0.9 | 2.6 | 0.00 | 0.44 | 0.41 | 94 | 1007.2 |
| 20260510013003 | 54 | 111 | 0.9 | 2.6 | 0.00 | 0.44 | 0.41 | 94 | 1007.3 |
| 20260510012703 | 54 | 105 | 0.9 | 1.7 | 0.00 | 0.45 | 0.41 | 94 | 1007.2 |
| 20260510012403 | 54 | 102 | 0.0 | 1.7 | 0.00 | 0.45 | 0.41 | 94 | 1007.1 |
| 20260510012204 | 54 | 102 | 0.0 | 1.7 | 0.00 | 0.45 | 0.41 | 94 | 1007.2 |
| 20260510012103 | 54 | 102 | 0.0 | 1.7 | 0.00 | 0.45 | 0.41 | 94 | 1007.0 |
| 20260510011903 | 54 | 103 | 0.0 | 1.7 | 0.00 | 0.45 | 0.41 | 94 | 1006.9 |
| 20260510011802 | 54 | 103 | 0.0 | 1.7 | 0.00 | 0.45 | 0.41 | 94 | 1007.2 |
| 20260510011703 | 54 | 94 | 0.0 | 1.7 | 0.00 | 0.45 | 0.41 | 94 | 1007.2 |
| 20260510011602 | 54 | 97 | 0.0 | 1.7 | 0.00 | 0.45 | 0.41 | 94 | 1007.1 |
| 20260510011303 | 54 | 99 | 0.0 | 1.7 | 0.00 | 0.45 | 0.41 | 94 | 1007.1 |
| 20260510011103 | 54 | 104 | 0.0 | 1.7 | 0.00 | 0.45 | 0.41 | 94 | 1007.1 |
| 20260510011024 | 54 | 106 | 0.9 | 1.7 | 0.00 | 0.45 | 0.41 | 94 | 1006.9 |
| 20260510010903 | 54 | 106 | 0.9 | 1.7 | 0.00 | 0.45 | 0.41 | 93 | 1006.9 |
| 20260510010703 | 54 | 107 | 0.9 | 1.7 | 0.00 | 0.45 | 0.41 | 93 | 1006.9 |
| 20260510010603 | 54 | 107 | 0.9 | 1.7 | 0.00 | 0.45 | 0.41 | 93 | 1006.9 |
| 20260510010403 | 54 | 110 | 0.9 | 1.7 | 0.00 | 0.45 | 0.41 | 93 | 1007.0 |
| 20260510010003 | 54 | 111 | 0.9 | 1.7 | 0.00 | 0.45 | 0.41 | 93 | 1006.9 |
| 20260510005603 | 55 | 116 | 0.0 | 1.7 | 0.00 | 0.46 | 0.41 | 92 | 1006.9 |
| 20260510005403 | 55 | 117 | 0.0 | 1.7 | 0.00 | 0.46 | 0.41 | 92 | 1006.8 |
| 20260510005203 | 55 | 121 | 0.0 | 1.7 | 0.00 | 0.46 | 0.41 | 92 | 1006.9 |
| 20260510004824 | 55 | 115 | 0.0 | 0.9 | 0.00 | 0.46 | 0.41 | 91 | 1006.9 |
| 20260510004602 | 55 | 114 | 0.0 | 0.9 | 0.00 | 0.46 | 0.41 | 91 | 1006.7 |
| 20260510004403 | 55 | 145 | 0.0 | 3.5 | 0.00 | 0.47 | 0.41 | 91 | 1006.7 |
| 20260510004303 | 55 | 148 | 0.0 | 3.5 | 0.00 | 0.47 | 0.41 | 90 | 1006.9 |
| 20260510003403 | 56 | 147 | 0.9 | 3.5 | 0.00 | 0.48 | 0.41 | 90 | 1006.8 |
| 20260510003202 | 56 | 145 | 0.9 | 3.5 | 0.00 | 0.48 | 0.41 | 90 | 1006.8 |
| 20260510002724 | 56 | 143 | 0.9 | 2.6 | 0.02 | 0.49 | 0.41 | 90 | 1006.7 |
| 20260510002603 | 56 | 141 | 0.9 | 2.6 | 0.02 | 0.49 | 0.41 | 90 | 1006.8 |
| 20260510002524 | 56 | 146 | 0.9 | 2.6 | 0.03 | 0.49 | 0.41 | 90 | 1006.9 |
| 20260510002423 | 56 | 146 | 0.9 | 2.6 | 0.03 | 0.49 | 0.41 | 90 | 1006.7 |
| 20260510001903 | 56 | 155 | 1.7 | 5.2 | 0.06 | 0.49 | 0.41 | 90 | 1006.8 |
| 20260510001803 | 56 | 153 | 1.7 | 5.2 | 0.06 | 0.49 | 0.41 | 90 | 1006.7 |
| 20260510001602 | 56 | 155 | 1.7 | 5.2 | 0.07 | 0.49 | 0.41 | 90 | 1006.8 |
| 20260510001403 | 56 | 153 | 1.7 | 5.2 | 0.08 | 0.50 | 0.41 | 90 | 1006.5 |
| 20260510001203 | 56 | 148 | 1.7 | 5.2 | 0.09 | 0.50 | 0.41 | 91 | 1006.7 |
| 20260510000803 | 56 | 140 | 0.9 | 3.5 | 0.12 | 0.50 | 0.41 | 91 | 1006.6 |
| 20260510000703 | 56 | 138 | 0.9 | 3.5 | 0.13 | 0.50 | 0.41 | 91 | 1006.6 |
| 20260510000624 | 56 | 137 | 0.9 | 3.5 | 0.14 | 0.50 | 0.41 | 91 | 1006.6 |
| 20260510000403 | 56 | 149 | 0.9 | 6.1 | 0.15 | 0.50 | 0.41 | 91 | 1006.8 |
| 20260510000304 | 56 | 151 | 1.7 | 6.1 | 0.17 | 0.50 | 0.41 | 91 | 1006.5 |
| 20260510000204 | 56 | 157 | 1.7 | 6.1 | 0.19 | 0.50 | 0.41 | 91 | 1006.6 |
| 20260510000003 | 56 | 154 | 1.7 | 6.1 | 0.20 | 0.50 | 0.41 | 91 | 1006.5 |
| 20260509235224 | 56 | 155 | 1.7 | 5.2 | 0.26 | 0.51 | 0.41 | 92 | 1006.8 |
| 20260509235003 | 56 | 154 | 0.9 | 5.2 | 0.26 | 0.51 | 0.41 | 92 | 1006.6 |
| 20260509234803 | 56 | 153 | 0.9 | 3.5 | 0.26 | 0.51 | 0.41 | 92 | 1006.6 |
| 20260509234603 | 56 | 153 | 0.9 | 3.5 | 0.26 | 0.52 | 0.41 | 92 | 1006.6 |
| 20260509234524 | 56 | 162 | 0.9 | 3.5 | 0.26 | 0.52 | 0.41 | 92 | 1006.8 |
| 20260509234324 | 56 | 179 | 1.7 | 7.0 | 0.26 | 0.52 | 0.41 | 92 | 1006.8 |
| 20260509234103 | 55 | 203 | 1.7 | 7.0 | 0.26 | 0.52 | 0.41 | 93 | 1006.5 |
| 20260509233702 | 55 | 208 | 2.6 | 7.8 | 0.26 | 0.53 | 0.41 | 92 | 1006.7 |
| 20260509233524 | 55 | 208 | 2.6 | 7.8 | 0.26 | 0.53 | 0.41 | 92 | 1006.6 |
| 20260509233424 | 55 | 219 | 3.5 | 8.7 | 0.26 | 0.53 | 0.41 | 92 | 1006.8 |
| 20260509233303 | 55 | 218 | 3.5 | 8.7 | 0.26 | 0.53 | 0.41 | 92 | 1006.8 |
| 20260509233124 | 55 | 221 | 3.5 | 9.6 | 0.25 | 0.52 | 0.41 | 92 | 1006.8 |
| 20260509232902 | 55 | 229 | 3.5 | 9.6 | 0.25 | 0.53 | 0.40 | 93 | 1007.0 |
| 20260509232803 | 55 | 239 | 3.5 | 11.3 | 0.24 | 0.52 | 0.39 | 93 | 1007.2 |
| 20260509232603 | 55 | 248 | 4.3 | 13.9 | 0.24 | 0.52 | 0.39 | 92 | 1007.2 |
| 20260509232003 | 55 | 257 | 3.5 | 13.9 | 0.20 | 0.48 | 0.35 | 92 | 1007.3 |
| 20260509231903 | 55 | 255 | 3.5 | 13.9 | 0.20 | 0.48 | 0.35 | 92 | 1007.4 |
| 20260509231603 | 55 | 244 | 1.7 | 11.3 | 0.19 | 0.48 | 0.34 | 92 | 1007.1 |
| 20260509231503 | 55 | 18 | 1.7 | 8.7 | 0.18 | 0.47 | 0.33 | 92 | 1007.0 |
| 20260509231424 | 55 | 9 | 1.7 | 9.6 | 0.18 | 0.47 | 0.33 | 92 | 1006.8 |
| 20260509231103 | 55 | 352 | 3.5 | 13.9 | 0.17 | 0.46 | 0.32 | 91 | 1006.3 |
| 20260509230903 | 55 | 348 | 4.3 | 13.9 | 0.16 | 0.45 | 0.31 | 91 | 1006.3 |
| 20260509230603 | 55 | 335 | 5.2 | 13.9 | 0.12 | 0.41 | 0.27 | 90 | 1006.6 |
| 20260509230203 | 56 | 319 | 5.2 | 16.5 | 0.07 | 0.36 | 0.22 | 87 | 1006.6 |
| 20260509230124 | 56 | 317 | 6.1 | 16.5 | 0.07 | 0.36 | 0.22 | 87 | 1006.7 |
| 20260509225624 | 60 | 320 | 6.1 | 16.5 | 0.00 | 0.29 | 0.16 | 79 | 1006.7 |
| 20260509225424 | 62 | 316 | 5.2 | 16.5 | 0.00 | 0.29 | 0.15 | 74 | 1006.4 |
| 20260509225305 | 65 | 296 | 4.3 | 16.5 | 0.00 | 0.29 | 0.15 | 69 | 1006.3 |
| 20260509225103 | 67 | 296 | 4.3 | 13.9 | 0.00 | 0.30 | 0.15 | 63 | 1006.3 |
| 20260509225003 | 68 | 262 | 3.5 | 7.8 | 0.00 | 0.30 | 0.15 | 59 | 1006.0 |
| 20260509224903 | 68 | 232 | 3.5 | 9.6 | 0.00 | 0.30 | 0.15 | 58 | 1005.5 |
| 20260509224703 | 68 | 212 | 3.5 | 9.6 | 0.00 | 0.31 | 0.15 | 56 | 1004.6 |
| 20260509224503 | 68 | 197 | 3.5 | 9.6 | 0.00 | 0.31 | 0.15 | 57 | 1004.4 |
| 20260509224403 | 68 | 191 | 3.5 | 9.6 | 0.00 | 0.31 | 0.15 | 57 | 1004.1 |
| 20260509224303 | 68 | 192 | 3.5 | 9.6 | 0.00 | 0.32 | 0.15 | 56 | 1004.2 |
| 20260509224103 | 68 | 190 | 3.5 | 9.6 | 0.00 | 0.32 | 0.15 | 55 | 1004.1 |
| 20260509223702 | 68 | 177 | 2.6 | 7.8 | 0.00 | 0.34 | 0.15 | 55 | 1003.9 |
| 20260509223603 | 68 | 178 | 2.6 | 7.8 | 0.00 | 0.34 | 0.15 | 55 | 1004.0 |
| 20260509223424 | 68 | 175 | 2.6 | 7.8 | 0.00 | 0.34 | 0.15 | 55 | 1003.9 |
| 20260509223124 | 68 | 164 | 2.6 | 9.6 | 0.00 | 0.34 | 0.15 | 55 | 1003.8 |
| 20260509223003 | 69 | 160 | 2.6 | 9.6 | 0.00 | 0.35 | 0.15 | 55 | 1004.0 |
| 20260509222903 | 69 | 152 | 2.6 | 9.6 | 0.00 | 0.35 | 0.15 | 55 | 1003.9 |
| 20260509222524 | 69 | 156 | 3.5 | 9.6 | 0.00 | 0.35 | 0.15 | 55 | 1004.2 |
| 20260509222403 | 69 | 164 | 3.5 | 9.6 | 0.00 | 0.35 | 0.15 | 55 | 1004.3 |
| 20260509222323 | 69 | 170 | 3.5 | 9.6 | 0.00 | 0.35 | 0.15 | 55 | 1004.2 |
| 20260509222103 | 69 | 195 | 3.5 | 12.2 | 0.00 | 0.36 | 0.15 | 54 | 1004.2 |
| 20260509222003 | 69 | 196 | 3.5 | 12.2 | 0.00 | 0.36 | 0.15 | 54 | 1004.1 |
| 20260509221924 | 69 | 199 | 4.3 | 15.6 | 0.00 | 0.36 | 0.15 | 53 | 1004.2 |
| 20260509221703 | 69 | 198 | 4.3 | 15.6 | 0.00 | 0.36 | 0.15 | 54 | 1004.3 |
| 20260509221603 | 69 | 201 | 5.2 | 15.6 | 0.00 | 0.36 | 0.15 | 54 | 1004.3 |
| 20260509221303 | 69 | 198 | 5.2 | 15.6 | 0.00 | 0.37 | 0.15 | 53 | 1004.2 |
| 20260509221103 | 69 | 191 | 5.2 | 15.6 | 0.00 | 0.37 | 0.15 | 53 | 1004.3 |
| 20260509221003 | 69 | 187 | 5.2 | 15.6 | 0.00 | 0.38 | 0.15 | 53 | 1004.1 |
| 20260509220602 | 69 | 186 | 4.3 | 13.9 | 0.00 | 0.39 | 0.15 | 53 | 1004.1 |
| 20260509220503 | 69 | 180 | 4.3 | 13.9 | 0.00 | 0.39 | 0.15 | 53 | 1004.0 |
| 20260509220403 | 69 | 183 | 5.2 | 13.9 | 0.00 | 0.39 | 0.15 | 53 | 1004.2 |
| 20260509220302 | 70 | 179 | 5.2 | 13.9 | 0.00 | 0.39 | 0.15 | 53 | 1004.2 |
| 20260509215903 | 70 | 192 | 5.2 | 15.6 | 0.00 | 0.39 | 0.15 | 53 | 1004.0 |
| 20260509215602 | 70 | 194 | 5.2 | 15.6 | 0.00 | 0.39 | 0.15 | 52 | 1004.0 |
| 20260509215424 | 71 | 193 | 5.2 | 15.6 | 0.00 | 0.39 | 0.15 | 53 | 1004.1 |
| 20260509215324 | 71 | 194 | 6.1 | 16.5 | 0.00 | 0.39 | 0.15 | 52 | 1004.1 |
| 20260509215103 | 71 | 187 | 6.1 | 16.5 | 0.00 | 0.39 | 0.15 | 52 | 1003.9 |
| 20260509214824 | 70 | 177 | 6.1 | 16.5 | 0.00 | 0.39 | 0.15 | 53 | 1003.8 |
| 20260509214603 | 70 | 174 | 6.1 | 16.5 | 0.00 | 0.39 | 0.15 | 52 | 1003.9 |
| 20260509214403 | 71 | 187 | 5.2 | 13.0 | 0.00 | 0.39 | 0.15 | 52 | 1004.1 |
| 20260509214303 | 71 | 184 | 5.2 | 13.0 | 0.00 | 0.39 | 0.15 | 52 | 1004.0 |
| 20260509214203 | 71 | 186 | 5.2 | 12.2 | 0.00 | 0.39 | 0.15 | 52 | 1004.0 |
| 20260509214103 | 71 | 192 | 5.2 | 12.2 | 0.00 | 0.39 | 0.15 | 52 | 1003.9 |
| 20260509213603 | 71 | 197 | 4.3 | 13.0 | 0.00 | 0.39 | 0.15 | 52 | 1004.0 |
| 20260509213403 | 71 | 184 | 4.3 | 13.0 | 0.00 | 0.39 | 0.15 | 53 | 1003.9 |
| 20260509213224 | 71 | 181 | 4.3 | 13.0 | 0.00 | 0.39 | 0.15 | 52 | 1004.1 |
| 20260509213003 | 71 | 181 | 4.3 | 13.0 | 0.00 | 0.39 | 0.15 | 53 | 1003.9 |
| 20260509212902 | 71 | 180 | 4.3 | 13.0 | 0.00 | 0.39 | 0.15 | 53 | 1004.2 |
| 20260509212803 | 71 | 186 | 4.3 | 13.0 | 0.00 | 0.39 | 0.15 | 52 | 1003.8 |
| 20260509212603 | 71 | 179 | 4.3 | 16.5 | 0.00 | 0.39 | 0.15 | 53 | 1004.0 |
| 20260509212403 | 71 | 175 | 5.2 | 16.5 | 0.00 | 0.39 | 0.15 | 53 | 1004.0 |
| 20260509211903 | 71 | 173 | 5.2 | 16.5 | 0.00 | 0.39 | 0.15 | 53 | 1004.0 |
| 20260509211403 | 71 | 175 | 5.2 | 15.6 | 0.00 | 0.39 | 0.15 | 53 | 1003.7 |
| 20260509211303 | 71 | 183 | 5.2 | 13.0 | 0.00 | 0.39 | 0.15 | 52 | 1004.1 |
| 20260509211203 | 71 | 184 | 5.2 | 13.0 | 0.00 | 0.39 | 0.15 | 53 | 1004.0 |
| 20260509210903 | 71 | 189 | 5.2 | 13.0 | 0.00 | 0.39 | 0.15 | 52 | 1004.2 |
| 20260509210303 | 71 | 184 | 5.2 | 13.9 | 0.00 | 0.39 | 0.15 | 53 | 1004.2 |
| 20260509210003 | 71 | 181 | 5.2 | 13.9 | 0.00 | 0.39 | 0.15 | 52 | 1004.2 |
| 20260509205803 | 71 | 191 | 5.2 | 15.6 | 0.00 | 0.39 | 0.15 | 52 | 1004.3 |
| 20260509205703 | 71 | 212 | 5.2 | 15.6 | 0.00 | 0.39 | 0.15 | 54 | 1004.1 |
| 20260509205603 | 71 | 208 | 5.2 | 15.6 | 0.00 | 0.39 | 0.15 | 55 | 1004.2 |
| 20260509205306 | 70 | 200 | 5.2 | 15.6 | 0.00 | 0.39 | 0.15 | 55 | 1004.2 |
| 20260509205203 | 70 | 200 | 5.2 | 15.6 | 0.00 | 0.39 | 0.15 | 55 | 1004.2 |
| 20260509204903 | 70 | 197 | 5.2 | 14.8 | 0.00 | 0.39 | 0.15 | 55 | 1004.4 |
| 20260509204803 | 70 | 188 | 5.2 | 14.8 | 0.00 | 0.39 | 0.15 | 55 | 1004.6 |
| 20260509204603 | 71 | 179 | 5.2 | 14.8 | 0.00 | 0.39 | 0.15 | 54 | 1004.5 |
| 20260509204303 | 71 | 184 | 4.3 | 13.0 | 0.00 | 0.39 | 0.15 | 54 | 1004.6 |
| 20260509204203 | 70 | 186 | 5.2 | 13.0 | 0.00 | 0.39 | 0.15 | 56 | 1004.6 |
| 20260509204103 | 70 | 186 | 5.2 | 13.0 | 0.00 | 0.39 | 0.15 | 55 | 1004.5 |
| 20260509204003 | 70 | 184 | 5.2 | 13.0 | 0.00 | 0.39 | 0.15 | 55 | 1004.5 |
| 20260509203803 | 70 | 191 | 5.2 | 14.8 | 0.00 | 0.39 | 0.15 | 55 | 1004.6 |
| 20260509203703 | 70 | 186 | 5.2 | 14.8 | 0.00 | 0.39 | 0.15 | 54 | 1004.6 |
| 20260509203603 | 70 | 188 | 5.2 | 14.8 | 0.00 | 0.39 | 0.15 | 55 | 1004.7 |
| 20260509203503 | 70 | 189 | 5.2 | 14.8 | 0.00 | 0.39 | 0.15 | 54 | 1004.5 |
| 20260509203403 | 70 | 185 | 5.2 | 14.8 | 0.00 | 0.39 | 0.15 | 55 | 1004.5 |
| 20260509203103 | 69 | 172 | 5.2 | 14.8 | 0.00 | 0.39 | 0.15 | 56 | 1004.9 |
| 20260509203003 | 69 | 177 | 5.2 | 14.8 | 0.00 | 0.39 | 0.15 | 55 | 1005.0 |
| 20260509202903 | 70 | 176 | 5.2 | 15.6 | 0.00 | 0.39 | 0.15 | 55 | 1005.0 |
| 20260509202824 | 70 | 173 | 5.2 | 15.6 | 0.00 | 0.39 | 0.15 | 54 | 1004.9 |
| 20260509202403 | 71 | 172 | 5.2 | 15.6 | 0.00 | 0.39 | 0.15 | 54 | 1005.1 |
| 20260509202103 | 71 | 188 | 6.1 | 15.6 | 0.00 | 0.39 | 0.15 | 53 | 1004.9 |
| 20260509201903 | 70 | 182 | 5.2 | 15.6 | 0.00 | 0.39 | 0.15 | 53 | 1005.0 |
| 20260509201803 | 70 | 180 | 6.1 | 15.6 | 0.00 | 0.39 | 0.15 | 53 | 1004.7 |
| 20260509201603 | 70 | 181 | 5.2 | 14.8 | 0.00 | 0.39 | 0.15 | 53 | 1005.1 |
| 20260509201503 | 71 | 184 | 5.2 | 13.9 | 0.00 | 0.39 | 0.15 | 53 | 1004.9 |
| 20260509201203 | 71 | 191 | 5.2 | 13.9 | 0.00 | 0.39 | 0.15 | 51 | 1005.0 |
| 20260509201003 | 71 | 181 | 5.2 | 13.9 | 0.00 | 0.39 | 0.15 | 52 | 1005.1 |
| 20260509200903 | 71 | 184 | 5.2 | 13.9 | 0.00 | 0.39 | 0.15 | 51 | 1005.1 |
| 20260509200703 | 70 | 183 | 6.1 | 13.9 | 0.00 | 0.39 | 0.15 | 52 | 1005.0 |
| 20260509200603 | 70 | 182 | 6.1 | 13.9 | 0.00 | 0.39 | 0.15 | 52 | 1005.1 |
| 20260509200403 | 70 | 179 | 5.2 | 13.9 | 0.00 | 0.39 | 0.15 | 52 | 1005.4 |
| 20260509200203 | 70 | 174 | 5.2 | 13.9 | 0.00 | 0.39 | 0.15 | 52 | 1005.0 |
| 20260509195803 | 71 | 199 | 5.2 | 13.0 | 0.00 | 0.39 | 0.15 | 52 | 1005.3 |
| 20260509195703 | 71 | 201 | 5.2 | 13.9 | 0.00 | 0.39 | 0.15 | 52 | 1005.3 |
| 20260509195602 | 70 | 201 | 5.2 | 13.9 | 0.00 | 0.39 | 0.15 | 51 | 1005.1 |
| 20260509195524 | 70 | 202 | 5.2 | 13.9 | 0.00 | 0.39 | 0.15 | 52 | 1005.1 |
| 20260509195424 | 69 | 201 | 6.1 | 13.9 | 0.00 | 0.39 | 0.15 | 52 | 1005.1 |
| 20260509195306 | 69 | 203 | 6.1 | 13.9 | 0.00 | 0.39 | 0.15 | 51 | 1005.2 |
| 20260509195103 | 69 | 204 | 6.1 | 13.9 | 0.00 | 0.39 | 0.15 | 52 | 1005.2 |
| 20260509194903 | 69 | 195 | 5.2 | 13.9 | 0.00 | 0.39 | 0.15 | 53 | 1005.3 |
| 20260509194803 | 69 | 187 | 5.2 | 13.9 | 0.00 | 0.39 | 0.15 | 53 | 1005.3 |
| 20260509194703 | 69 | 191 | 5.2 | 13.9 | 0.00 | 0.39 | 0.15 | 54 | 1005.4 |
| 20260509194624 | 69 | 194 | 5.2 | 13.0 | 0.00 | 0.39 | 0.15 | 54 | 1005.3 |
| 20260509194503 | 70 | 196 | 5.2 | 13.0 | 0.00 | 0.39 | 0.15 | 54 | 1005.3 |
| 20260509194103 | 70 | 197 | 5.2 | 13.9 | 0.00 | 0.39 | 0.15 | 54 | 1005.6 |
| 20260509194003 | 70 | 193 | 5.2 | 13.9 | 0.00 | 0.39 | 0.15 | 54 | 1005.4 |
| 20260509193903 | 69 | 190 | 5.2 | 13.9 | 0.00 | 0.39 | 0.15 | 54 | 1005.5 |
| 20260509193724 | 69 | 192 | 5.2 | 13.9 | 0.00 | 0.39 | 0.15 | 54 | 1005.5 |
| 20260509193524 | 69 | 197 | 5.2 | 13.9 | 0.00 | 0.39 | 0.15 | 55 | 1005.6 |
| 20260509193402 | 69 | 197 | 5.2 | 13.9 | 0.00 | 0.39 | 0.15 | 55 | 1005.5 |
| 20260509193303 | 69 | 195 | 5.2 | 13.9 | 0.00 | 0.39 | 0.15 | 55 | 1005.7 |
| 20260509192903 | 69 | 208 | 5.2 | 13.9 | 0.00 | 0.39 | 0.15 | 55 | 1005.5 |
| 20260509192803 | 69 | 207 | 4.3 | 13.9 | 0.00 | 0.39 | 0.15 | 56 | 1005.7 |
| 20260509192603 | 69 | 201 | 4.3 | 13.9 | 0.00 | 0.39 | 0.15 | 55 | 1005.7 |
| 20260509192203 | 69 | 206 | 5.2 | 13.9 | 0.00 | 0.39 | 0.15 | 56 | 1005.9 |
| 20260509191903 | 69 | 203 | 5.2 | 13.9 | 0.00 | 0.39 | 0.15 | 56 | 1006.0 |
| 20260509191624 | 68 | 204 | 5.2 | 13.9 | 0.00 | 0.39 | 0.15 | 57 | 1005.9 |
| 20260509191403 | 68 | 195 | 4.3 | 13.9 | 0.00 | 0.39 | 0.15 | 58 | 1005.9 |
| 20260509191303 | 68 | 191 | 4.3 | 13.9 | 0.00 | 0.39 | 0.15 | 57 | 1006.0 |
| 20260509190803 | 68 | 181 | 4.3 | 13.9 | 0.00 | 0.39 | 0.15 | 58 | 1006.1 |
| 20260509190603 | 68 | 187 | 4.3 | 13.9 | 0.00 | 0.39 | 0.15 | 58 | 1006.1 |
| 20260509190503 | 68 | 184 | 4.3 | 13.9 | 0.00 | 0.39 | 0.15 | 58 | 1006.0 |
| 20260509190424 | 68 | 188 | 4.3 | 13.9 | 0.00 | 0.39 | 0.15 | 57 | 1006.1 |
| 20260509190003 | 68 | 207 | 5.2 | 13.0 | 0.00 | 0.39 | 0.15 | 57 | 1006.1 |
| 20260509185824 | 68 | 206 | 5.2 | 13.0 | 0.00 | 0.39 | 0.15 | 57 | 1006.2 |
| 20260509185524 | 67 | 209 | 5.2 | 13.0 | 0.00 | 0.39 | 0.15 | 59 | 1006.2 |
| 20260509185202 | 67 | 202 | 4.3 | 13.0 | 0.00 | 0.39 | 0.15 | 59 | 1006.3 |
| 20260509185103 | 67 | 197 | 4.3 | 12.2 | 0.00 | 0.39 | 0.15 | 58 | 1006.2 |
| 20260509185003 | 67 | 191 | 4.3 | 11.3 | 0.00 | 0.39 | 0.15 | 59 | 1006.3 |
| 20260509184803 | 67 | 187 | 3.5 | 9.6 | 0.00 | 0.39 | 0.15 | 58 | 1006.1 |
| 20260509184703 | 67 | 174 | 3.5 | 8.7 | 0.00 | 0.39 | 0.15 | 59 | 1006.3 |
| 20260509184603 | 67 | 171 | 3.5 | 8.7 | 0.00 | 0.39 | 0.15 | 59 | 1006.2 |
| 20260509184303 | 67 | 175 | 3.5 | 9.6 | 0.00 | 0.39 | 0.15 | 59 | 1006.2 |
| 20260509184203 | 67 | 186 | 4.3 | 9.6 | 0.00 | 0.39 | 0.15 | 59 | 1006.1 |
| 20260509184103 | 67 | 195 | 4.3 | 9.6 | 0.00 | 0.39 | 0.15 | 59 | 1006.1 |
| 20260509183803 | 67 | 209 | 4.3 | 13.9 | 0.00 | 0.39 | 0.15 | 59 | 1006.2 |
| 20260509183624 | 67 | 216 | 4.3 | 13.9 | 0.00 | 0.39 | 0.15 | 58 | 1006.1 |
| 20260509183524 | 67 | 219 | 4.3 | 13.9 | 0.00 | 0.39 | 0.15 | 58 | 1006.3 |
| 20260509183203 | 67 | 222 | 4.3 | 13.9 | 0.00 | 0.39 | 0.15 | 59 | 1006.1 |
| 20260509183103 | 67 | 215 | 3.5 | 13.9 | 0.00 | 0.39 | 0.15 | 58 | 1006.1 |
| 20260509182903 | 68 | 207 | 3.5 | 9.6 | 0.00 | 0.39 | 0.15 | 57 | 1006.2 |
| 20260509182803 | 68 | 207 | 3.5 | 12.2 | 0.00 | 0.39 | 0.15 | 57 | 1006.2 |
| 20260509182603 | 68 | 207 | 3.5 | 12.2 | 0.00 | 0.39 | 0.15 | 57 | 1006.2 |
| 20260509182306 | 69 | 198 | 4.3 | 14.8 | 0.00 | 0.39 | 0.15 | 56 | 1006.2 |
| 20260509182103 | 68 | 196 | 5.2 | 14.8 | 0.00 | 0.39 | 0.15 | 57 | 1006.2 |
| 20260509182003 | 68 | 202 | 5.2 | 14.8 | 0.00 | 0.39 | 0.15 | 56 | 1006.1 |
| 20260509181624 | 67 | 188 | 4.3 | 14.8 | 0.00 | 0.39 | 0.15 | 57 | 1006.1 |
| 20260509181503 | 67 | 184 | 4.3 | 14.8 | 0.00 | 0.39 | 0.15 | 58 | 1006.0 |
| 20260509181303 | 68 | 178 | 4.3 | 12.2 | 0.00 | 0.39 | 0.15 | 57 | 1006.2 |
| 20260509181203 | 68 | 180 | 3.5 | 12.2 | 0.00 | 0.39 | 0.15 | 59 | 1006.0 |
| 20260509181003 | 68 | 170 | 3.5 | 13.9 | 0.00 | 0.39 | 0.15 | 58 | 1005.9 |
| 20260509180903 | 68 | 164 | 4.3 | 13.9 | 0.00 | 0.39 | 0.15 | 59 | 1006.0 |
| 20260509180303 | 67 | 163 | 4.3 | 13.9 | 0.00 | 0.39 | 0.15 | 59 | 1006.1 |
| 20260509180203 | 67 | 161 | 4.3 | 13.9 | 0.00 | 0.39 | 0.15 | 59 | 1005.9 |
| 20260509175602 | 67 | 191 | 4.3 | 12.2 | 0.00 | 0.39 | 0.15 | 59 | 1006.2 |
| 20260509175424 | 66 | 198 | 4.3 | 12.2 | 0.00 | 0.39 | 0.15 | 61 | 1006.3 |
| 20260509175306 | 66 | 204 | 4.3 | 12.2 | 0.00 | 0.39 | 0.15 | 59 | 1006.4 |
| 20260509175203 | 66 | 205 | 4.3 | 9.6 | 0.00 | 0.39 | 0.15 | 60 | 1006.3 |
| 20260509175103 | 66 | 206 | 4.3 | 9.6 | 0.00 | 0.39 | 0.15 | 61 | 1006.3 |
| 20260509175003 | 66 | 196 | 4.3 | 9.6 | 0.00 | 0.39 | 0.15 | 60 | 1006.3 |
| 20260509174924 | 67 | 189 | 4.3 | 9.6 | 0.00 | 0.39 | 0.15 | 60 | 1006.4 |
| 20260509174803 | 67 | 180 | 3.5 | 8.7 | 0.00 | 0.39 | 0.15 | 59 | 1006.4 |
| 20260509174103 | 67 | 177 | 3.5 | 11.3 | 0.00 | 0.39 | 0.15 | 60 | 1006.2 |
| 20260509173803 | 67 | 174 | 3.5 | 11.3 | 0.00 | 0.39 | 0.15 | 60 | 1006.5 |
| 20260509173703 | 66 | 177 | 4.3 | 11.3 | 0.00 | 0.39 | 0.15 | 60 | 1006.4 |
| 20260509173603 | 66 | 180 | 4.3 | 11.3 | 0.00 | 0.39 | 0.15 | 60 | 1006.3 |
| 20260509173324 | 67 | 186 | 4.3 | 11.3 | 0.00 | 0.39 | 0.15 | 59 | 1006.5 |
| 20260509173203 | 66 | 176 | 3.5 | 9.6 | 0.00 | 0.39 | 0.15 | 60 | 1006.4 |
| 20260509173103 | 66 | 175 | 3.5 | 9.6 | 0.00 | 0.39 | 0.15 | 60 | 1006.5 |
| 20260509173003 | 67 | 175 | 3.5 | 9.6 | 0.00 | 0.39 | 0.15 | 60 | 1006.4 |
| 20260509172803 | 67 | 182 | 3.5 | 9.6 | 0.00 | 0.39 | 0.15 | 59 | 1006.3 |
| 20260509172703 | 67 | 183 | 3.5 | 9.6 | 0.00 | 0.39 | 0.15 | 60 | 1006.4 |
| 20260509172602 | 67 | 183 | 3.5 | 8.7 | 0.00 | 0.39 | 0.15 | 61 | 1006.4 |
| 20260509172306 | 66 | 173 | 3.5 | 9.6 | 0.00 | 0.39 | 0.15 | 61 | 1006.5 |
| 20260509172224 | 66 | 174 | 3.5 | 9.6 | 0.00 | 0.39 | 0.15 | 62 | 1006.3 |
| 20260509172103 | 66 | 178 | 4.3 | 11.3 | 0.00 | 0.39 | 0.15 | 61 | 1006.6 |
| 20260509172003 | 66 | 180 | 4.3 | 11.3 | 0.00 | 0.39 | 0.15 | 61 | 1006.5 |
| 20260509171903 | 66 | 181 | 4.3 | 11.3 | 0.00 | 0.39 | 0.15 | 61 | 1006.4 |
| 20260509171824 | 66 | 170 | 4.3 | 11.3 | 0.00 | 0.39 | 0.15 | 60 | 1006.5 |
| 20260509171726 | 66 | 164 | 4.3 | 11.3 | 0.00 | 0.39 | 0.15 | 60 | 1006.4 |
| 20260509171603 | 65 | 162 | 4.3 | 11.3 | 0.00 | 0.39 | 0.15 | 59 | 1006.5 |
| 20260509171524 | 65 | 167 | 3.5 | 11.3 | 0.00 | 0.39 | 0.15 | 60 | 1006.2 |
| 20260509171403 | 65 | 175 | 3.5 | 11.3 | 0.00 | 0.39 | 0.15 | 60 | 1006.3 |
| 20260509171303 | 65 | 175 | 3.5 | 11.3 | 0.00 | 0.39 | 0.15 | 60 | 1006.4 |
| 20260509171203 | 65 | 176 | 3.5 | 11.3 | 0.00 | 0.39 | 0.15 | 61 | 1006.3 |
| 20260509171103 | 66 | 175 | 3.5 | 11.3 | 0.00 | 0.39 | 0.15 | 61 | 1006.4 |
| 20260509171003 | 66 | 181 | 3.5 | 8.7 | 0.00 | 0.39 | 0.15 | 63 | 1006.3 |
| 20260509170924 | 66 | 184 | 3.5 | 8.7 | 0.00 | 0.39 | 0.15 | 63 | 1006.3 |
| 20260509170824 | 66 | 196 | 2.6 | 7.8 | 0.00 | 0.39 | 0.15 | 62 | 1006.3 |
| 20260509170403 | 66 | 211 | 3.5 | 9.6 | 0.00 | 0.39 | 0.15 | 63 | 1006.5 |
| 20260509170324 | 65 | 215 | 3.5 | 9.6 | 0.00 | 0.39 | 0.15 | 64 | 1006.3 |
| 20260509170203 | 65 | 212 | 3.5 | 9.6 | 0.00 | 0.39 | 0.15 | 63 | 1006.4 |
| 20260509165903 | 64 | 207 | 3.5 | 9.6 | 0.00 | 0.39 | 0.15 | 64 | 1006.2 |
| 20260509165803 | 64 | 202 | 3.5 | 9.6 | 0.00 | 0.39 | 0.15 | 65 | 1006.2 |
| 20260509165603 | 64 | 190 | 3.5 | 9.6 | 0.00 | 0.39 | 0.15 | 64 | 1006.3 |
| 20260509165403 | 65 | 192 | 3.5 | 7.0 | 0.00 | 0.39 | 0.15 | 65 | 1006.3 |
| 20260509165103 | 65 | 189 | 3.5 | 7.8 | 0.00 | 0.39 | 0.15 | 63 | 1006.4 |
| 20260509164924 | 65 | 200 | 3.5 | 7.8 | 0.00 | 0.39 | 0.15 | 63 | 1006.4 |
| 20260509164703 | 65 | 208 | 3.5 | 7.8 | 0.00 | 0.39 | 0.15 | 64 | 1006.3 |
| 20260509164602 | 65 | 204 | 3.5 | 7.8 | 0.00 | 0.39 | 0.15 | 64 | 1006.3 |
| 20260509164403 | 65 | 194 | 3.5 | 7.8 | 0.00 | 0.39 | 0.15 | 63 | 1006.4 |
| 20260509164303 | 64 | 193 | 2.6 | 7.8 | 0.00 | 0.39 | 0.15 | 65 | 1006.3 |
| 20260509164203 | 64 | 189 | 2.6 | 7.8 | 0.00 | 0.39 | 0.15 | 63 | 1006.2 |
| 20260509164103 | 64 | 189 | 2.6 | 7.8 | 0.00 | 0.39 | 0.15 | 63 | 1006.3 |
| 20260509163903 | 65 | 169 | 2.6 | 7.8 | 0.00 | 0.39 | 0.15 | 64 | 1006.5 |
| 20260509163803 | 65 | 152 | 2.6 | 7.8 | 0.00 | 0.39 | 0.15 | 64 | 1006.5 |
| 20260509163603 | 65 | 167 | 2.6 | 7.8 | 0.00 | 0.39 | 0.15 | 63 | 1006.7 |
| 20260509163503 | 65 | 170 | 2.6 | 7.8 | 0.00 | 0.39 | 0.15 | 64 | 1006.6 |
| 20260509163403 | 65 | 173 | 2.6 | 7.8 | 0.00 | 0.39 | 0.15 | 65 | 1006.5 |
| 20260509163124 | 65 | 177 | 2.6 | 7.8 | 0.00 | 0.39 | 0.15 | 65 | 1006.6 |
| 20260509162926 | 65 | 174 | 2.6 | 7.8 | 0.00 | 0.39 | 0.15 | 63 | 1006.5 |
| 20260509162824 | 65 | 184 | 2.6 | 6.1 | 0.00 | 0.39 | 0.15 | 64 | 1006.5 |
| 20260509162603 | 64 | 187 | 2.6 | 7.0 | 0.00 | 0.39 | 0.15 | 66 | 1006.7 |
| 20260509162403 | 64 | 175 | 2.6 | 7.0 | 0.00 | 0.39 | 0.15 | 66 | 1006.7 |
| 20260509162003 | 64 | 174 | 3.5 | 8.7 | 0.00 | 0.39 | 0.15 | 67 | 1006.9 |
| 20260509161803 | 64 | 177 | 3.5 | 8.7 | 0.00 | 0.39 | 0.15 | 64 | 1006.8 |
| 20260509161603 | 64 | 178 | 3.5 | 8.7 | 0.00 | 0.39 | 0.15 | 63 | 1006.9 |
| 20260509161503 | 64 | 179 | 3.5 | 8.7 | 0.00 | 0.39 | 0.15 | 64 | 1007.0 |
| 20260509161303 | 64 | 188 | 3.5 | 8.7 | 0.00 | 0.39 | 0.15 | 65 | 1007.0 |
| 20260509161103 | 64 | 190 | 3.5 | 7.8 | 0.00 | 0.39 | 0.15 | 66 | 1007.1 |
| 20260509160903 | 64 | 190 | 3.5 | 8.7 | 0.00 | 0.39 | 0.15 | 68 | 1007.0 |
| 20260509160803 | 64 | 190 | 3.5 | 8.7 | 0.00 | 0.39 | 0.15 | 67 | 1007.1 |
| 20260509160603 | 64 | 192 | 3.5 | 8.7 | 0.00 | 0.39 | 0.15 | 69 | 1007.1 |
| 20260509160503 | 63 | 197 | 3.5 | 8.7 | 0.00 | 0.39 | 0.15 | 68 | 1007.1 |
| 20260509160403 | 63 | 195 | 2.6 | 8.7 | 0.00 | 0.39 | 0.15 | 68 | 1006.9 |
| 20260509160324 | 63 | 201 | 2.6 | 8.7 | 0.00 | 0.39 | 0.15 | 67 | 1007.2 |
| 20260509155803 | 62 | 199 | 2.6 | 8.7 | 0.00 | 0.39 | 0.15 | 69 | 1006.9 |
| 20260509155503 | 61 | 190 | 2.6 | 8.7 | 0.00 | 0.39 | 0.15 | 72 | 1007.1 |
| 20260509155403 | 61 | 194 | 2.6 | 8.7 | 0.00 | 0.39 | 0.15 | 72 | 1007.1 |
| 20260509155103 | 61 | 173 | 2.6 | 8.7 | 0.00 | 0.39 | 0.15 | 72 | 1007.2 |
| 20260509154603 | 62 | 176 | 2.6 | 8.7 | 0.00 | 0.39 | 0.15 | 71 | 1007.1 |
| 20260509154503 | 62 | 182 | 3.5 | 9.6 | 0.00 | 0.39 | 0.15 | 72 | 1007.1 |
| 20260509154203 | 62 | 180 | 2.6 | 9.6 | 0.00 | 0.39 | 0.15 | 70 | 1007.1 |
| 20260509154103 | 62 | 181 | 2.6 | 9.6 | 0.00 | 0.39 | 0.15 | 71 | 1007.1 |
| 20260509153903 | 61 | 187 | 2.6 | 9.6 | 0.00 | 0.39 | 0.15 | 71 | 1007.0 |
| 20260509153603 | 62 | 200 | 2.6 | 9.6 | 0.00 | 0.39 | 0.15 | 72 | 1007.1 |
| 20260509153403 | 61 | 203 | 2.6 | 6.1 | 0.00 | 0.39 | 0.15 | 75 | 1007.2 |
| 20260509153303 | 61 | 206 | 2.6 | 6.1 | 0.00 | 0.39 | 0.15 | 75 | 1007.1 |
| 20260509153103 | 60 | 218 | 2.6 | 6.1 | 0.00 | 0.39 | 0.15 | 76 | 1007.1 |
| 20260509153003 | 60 | 216 | 2.6 | 6.1 | 0.00 | 0.39 | 0.15 | 76 | 1007.1 |
| 20260509152903 | 60 | 209 | 2.6 | 6.1 | 0.00 | 0.39 | 0.15 | 76 | 1007.1 |
| 20260509152703 | 60 | 196 | 1.7 | 6.1 | 0.00 | 0.39 | 0.15 | 76 | 1007.0 |
| 20260509152603 | 60 | 194 | 2.6 | 6.1 | 0.00 | 0.39 | 0.15 | 76 | 1007.1 |
| 20260509152503 | 60 | 191 | 1.7 | 6.1 | 0.00 | 0.39 | 0.15 | 76 | 1007.2 |
| 20260509152203 | 60 | 187 | 2.6 | 6.1 | 0.00 | 0.39 | 0.15 | 75 | 1007.0 |
| 20260509151924 | 60 | 191 | 2.6 | 6.1 | 0.00 | 0.39 | 0.15 | 75 | 1007.0 |
| 20260509151603 | 59 | 201 | 2.6 | 6.1 | 0.00 | 0.39 | 0.15 | 76 | 1007.0 |
| 20260509151524 | 59 | 199 | 2.6 | 6.1 | 0.00 | 0.39 | 0.15 | 76 | 1007.0 |
| 20260509151403 | 59 | 204 | 1.7 | 5.2 | 0.00 | 0.39 | 0.15 | 77 | 1007.0 |
| 20260509151203 | 59 | 196 | 1.7 | 5.2 | 0.00 | 0.39 | 0.15 | 78 | 1007.0 |
| 20260509151003 | 59 | 182 | 1.7 | 5.2 | 0.00 | 0.39 | 0.15 | 78 | 1007.3 |
| 20260509150803 | 60 | 170 | 1.7 | 5.2 | 0.00 | 0.39 | 0.15 | 78 | 1007.0 |
| 20260509150703 | 60 | 164 | 1.7 | 5.2 | 0.00 | 0.39 | 0.15 | 78 | 1007.1 |
| 20260509150603 | 60 | 163 | 1.7 | 3.5 | 0.00 | 0.39 | 0.15 | 78 | 1007.2 |
| 20260509150503 | 60 | 165 | 1.7 | 3.5 | 0.00 | 0.39 | 0.15 | 79 | 1007.1 |
| 20260509150424 | 60 | 168 | 1.7 | 3.5 | 0.00 | 0.39 | 0.15 | 79 | 1007.1 |
| 20260509150103 | 59 | 175 | 1.7 | 5.2 | 0.00 | 0.39 | 0.15 | 80 | 1007.1 |
| 20260509145903 | 58 | 179 | 1.7 | 6.1 | 0.00 | 0.39 | 0.15 | 81 | 1006.8 |
| 20260509145703 | 58 | 180 | 2.6 | 6.1 | 0.00 | 0.39 | 0.15 | 81 | 1007.0 |
| 20260509145524 | 58 | 181 | 2.6 | 6.1 | 0.00 | 0.39 | 0.15 | 80 | 1007.1 |
| 20260509145403 | 58 | 189 | 2.6 | 6.1 | 0.00 | 0.39 | 0.15 | 80 | 1007.1 |
| 20260509145324 | 58 | 186 | 1.7 | 6.1 | 0.00 | 0.39 | 0.15 | 80 | 1007.1 |
| 20260509145124 | 58 | 182 | 1.7 | 6.1 | 0.00 | 0.39 | 0.15 | 81 | 1007.0 |
| 20260509144903 | 58 | 190 | 1.7 | 6.1 | 0.00 | 0.39 | 0.15 | 81 | 1007.2 |
| 20260509144803 | 58 | 177 | 1.7 | 6.1 | 0.00 | 0.39 | 0.15 | 82 | 1007.2 |
| 20260509144603 | 58 | 188 | 1.7 | 6.1 | 0.00 | 0.39 | 0.15 | 83 | 1007.2 |
| 20260509144424 | 58 | 183 | 1.7 | 6.1 | 0.00 | 0.39 | 0.15 | 84 | 1007.1 |
| 20260509144103 | 57 | 197 | 2.6 | 6.1 | 0.00 | 0.39 | 0.15 | 84 | 1007.1 |
| 20260509144003 | 57 | 200 | 2.6 | 6.1 | 0.00 | 0.39 | 0.15 | 85 | 1007.1 |
| 20260509143903 | 57 | 195 | 2.6 | 6.1 | 0.00 | 0.39 | 0.15 | 85 | 1007.1 |
| 20260509143603 | 57 | 189 | 1.7 | 6.1 | 0.00 | 0.39 | 0.15 | 85 | 1007.1 |
| 20260509143103 | 57 | 159 | 0.9 | 6.1 | 0.00 | 0.39 | 0.15 | 86 | 1007.1 |
| 20260509143024 | 57 | 153 | 0.9 | 6.1 | 0.00 | 0.39 | 0.15 | 86 | 1007.1 |
| 20260509142903 | 57 | 154 | 0.9 | 6.1 | 0.00 | 0.39 | 0.15 | 87 | 1007.0 |
| 20260509142803 | 57 | 160 | 0.9 | 6.1 | 0.00 | 0.39 | 0.15 | 87 | 1007.1 |
| 20260509142624 | 57 | 163 | 0.9 | 6.1 | 0.00 | 0.39 | 0.15 | 87 | 1007.1 |
| 20260509142306 | 56 | 185 | 1.7 | 6.1 | 0.00 | 0.39 | 0.15 | 88 | 1007.2 |
| 20260509142103 | 56 | 201 | 1.7 | 6.1 | 0.00 | 0.39 | 0.15 | 88 | 1006.9 |
| 20260509141924 | 56 | 205 | 1.7 | 6.1 | 0.00 | 0.39 | 0.15 | 88 | 1007.2 |
| 20260509141603 | 56 | 219 | 2.6 | 7.8 | 0.00 | 0.39 | 0.15 | 89 | 1007.1 |
| 20260509141303 | 56 | 206 | 2.6 | 7.8 | 0.00 | 0.39 | 0.15 | 88 | 1007.2 |
| 20260509141103 | 56 | 197 | 1.7 | 7.8 | 0.00 | 0.39 | 0.15 | 89 | 1007.3 |
| 20260509140903 | 56 | 192 | 1.7 | 7.8 | 0.00 | 0.39 | 0.15 | 90 | 1007.2 |
| 20260509140803 | 55 | 189 | 1.7 | 7.8 | 0.00 | 0.39 | 0.15 | 90 | 1007.1 |
| 20260509140703 | 56 | 181 | 1.7 | 7.8 | 0.00 | 0.39 | 0.15 | 90 | 1007.2 |
| 20260509140603 | 56 | 160 | 0.9 | 5.2 | 0.00 | 0.39 | 0.15 | 90 | 1007.2 |
| 20260509140424 | 56 | 150 | 0.9 | 3.5 | 0.00 | 0.39 | 0.15 | 91 | 1007.1 |
| 20260509140303 | 56 | 143 | 0.9 | 2.6 | 0.00 | 0.39 | 0.15 | 91 | 1007.2 |
| 20260509140103 | 56 | 148 | 0.9 | 2.6 | 0.00 | 0.39 | 0.15 | 91 | 1007.0 |
| 20260509135803 | 56 | 152 | 0.9 | 3.5 | 0.00 | 0.39 | 0.15 | 91 | 1007.1 |
| 20260509135607 | 55 | 153 | 0.9 | 3.5 | 0.00 | 0.39 | 0.15 | 92 | 1007.2 |
| 20260509135403 | 55 | 153 | 0.9 | 3.5 | 0.00 | 0.39 | 0.15 | 92 | 1007.2 |
| 20260509135324 | 55 | 149 | 0.9 | 3.5 | 0.00 | 0.39 | 0.15 | 92 | 1007.2 |
| 20260509135103 | 55 | 150 | 0.9 | 3.5 | 0.00 | 0.39 | 0.15 | 92 | 1007.0 |
| 20260509135003 | 55 | 151 | 0.9 | 3.5 | 0.00 | 0.39 | 0.15 | 92 | 1007.3 |
| 20260509134924 | 55 | 150 | 0.9 | 3.5 | 0.00 | 0.39 | 0.15 | 92 | 1007.2 |
| 20260509134703 | 55 | 157 | 1.7 | 3.5 | 0.00 | 0.39 | 0.15 | 92 | 1007.2 |
| 20260509134503 | 55 | 154 | 1.7 | 9.6 | 0.00 | 0.39 | 0.15 | 92 | 1007.1 |
| 20260509134403 | 55 | 155 | 1.7 | 9.6 | 0.00 | 0.39 | 0.15 | 93 | 1007.0 |
| 20260509134224 | 55 | 155 | 1.7 | 9.6 | 0.00 | 0.39 | 0.15 | 93 | 1007.2 |
| 20260509134103 | 55 | 155 | 1.7 | 9.6 | 0.00 | 0.39 | 0.15 | 93 | 1006.9 |
| 20260509134003 | 54 | 156 | 0.9 | 9.6 | 0.00 | 0.39 | 0.15 | 93 | 1007.2 |
| 20260509133903 | 54 | 156 | 1.7 | 9.6 | 0.00 | 0.39 | 0.15 | 93 | 1007.2 |
| 20260509133803 | 54 | 155 | 1.7 | 9.6 | 0.00 | 0.39 | 0.15 | 93 | 1007.2 |
| 20260509133603 | 55 | 152 | 0.9 | 2.6 | 0.00 | 0.39 | 0.15 | 94 | 1007.3 |
| 20260509133303 | 55 | 148 | 0.9 | 3.5 | 0.00 | 0.39 | 0.15 | 94 | 1007.3 |
| 20260509133103 | 54 | 148 | 0.9 | 3.5 | 0.00 | 0.39 | 0.15 | 95 | 1007.0 |
| 20260509133003 | 54 | 147 | 0.9 | 3.5 | 0.00 | 0.39 | 0.15 | 94 | 1007.2 |
| 20260509132903 | 54 | 153 | 0.9 | 3.5 | 0.00 | 0.39 | 0.15 | 94 | 1007.3 |
| 20260509132724 | 54 | 145 | 0.9 | 6.1 | 0.00 | 0.39 | 0.15 | 95 | 1007.3 |
| 20260509132403 | 54 | 149 | 1.7 | 6.1 | 0.00 | 0.39 | 0.15 | 95 | 1007.3 |
| 20260509132103 | 54 | 152 | 1.7 | 6.1 | 0.00 | 0.39 | 0.15 | 95 | 1007.4 |
| 20260509131903 | 54 | 147 | 0.9 | 6.1 | 0.00 | 0.39 | 0.15 | 95 | 1007.3 |
| 20260509131803 | 54 | 148 | 0.9 | 3.5 | 0.00 | 0.39 | 0.15 | 95 | 1007.2 |
| 20260509131603 | 54 | 149 | 0.9 | 3.5 | 0.00 | 0.39 | 0.15 | 95 | 1007.3 |
| 20260509131503 | 54 | 148 | 0.9 | 3.5 | 0.00 | 0.39 | 0.15 | 95 | 1007.1 |
| 20260509131303 | 54 | 152 | 0.9 | 3.5 | 0.00 | 0.39 | 0.15 | 95 | 1007.1 |
| 20260509131203 | 54 | 153 | 1.7 | 3.5 | 0.00 | 0.39 | 0.15 | 95 | 1007.1 |
| 20260509131103 | 54 | 151 | 0.9 | 3.5 | 0.00 | 0.39 | 0.15 | 95 | 1007.3 |
| 20260509131024 | 54 | 151 | 0.9 | 3.5 | 0.00 | 0.39 | 0.15 | 95 | 1007.2 |
| 20260509130703 | 54 | 155 | 0.9 | 3.5 | 0.00 | 0.39 | 0.15 | 95 | 1007.2 |
| 20260509130603 | 54 | 157 | 0.9 | 3.5 | 0.00 | 0.39 | 0.15 | 96 | 1006.9 |
| 20260509130503 | 54 | 159 | 0.9 | 3.5 | 0.00 | 0.39 | 0.15 | 96 | 1007.1 |
| 20260509125803 | 54 | 138 | 0.9 | 3.5 | 0.00 | 0.39 | 0.15 | 96 | 1007.3 |
| 20260509125703 | 54 | 136 | 0.9 | 3.5 | 0.00 | 0.39 | 0.15 | 96 | 1007.3 |
| 20260509125424 | 54 | 139 | 0.9 | 3.5 | 0.00 | 0.39 | 0.15 | 96 | 1007.1 |
| 20260509125203 | 54 | 138 | 0.9 | 3.5 | 0.00 | 0.39 | 0.15 | 96 | 1007.2 |
| 20260509125103 | 54 | 143 | 1.7 | 5.2 | 0.00 | 0.39 | 0.15 | 96 | 1007.2 |
| 20260509124903 | 54 | 147 | 0.9 | 5.2 | 0.00 | 0.39 | 0.15 | 96 | 1007.2 |
| 20260509124603 | 54 | 144 | 1.7 | 5.2 | 0.00 | 0.40 | 0.15 | 97 | 1007.2 |
| 20260509124303 | 54 | 136 | 1.7 | 5.2 | 0.00 | 0.41 | 0.15 | 97 | 1007.3 |
| 20260509124103 | 54 | 137 | 1.7 | 3.5 | 0.00 | 0.41 | 0.15 | 97 | 1007.3 |
| 20260509124003 | 54 | 135 | 1.7 | 3.5 | 0.00 | 0.41 | 0.15 | 97 | 1007.4 |
| 20260509123803 | 53 | 137 | 1.7 | 3.5 | 0.00 | 0.41 | 0.15 | 97 | 1007.4 |
| 20260509123603 | 53 | 135 | 0.9 | 3.5 | 0.00 | 0.41 | 0.15 | 97 | 1007.5 |
| 20260509123124 | 53 | 131 | 0.9 | 2.6 | 0.00 | 0.41 | 0.15 | 97 | 1007.3 |
| 20260509122903 | 53 | 138 | 0.9 | 2.6 | 0.00 | 0.41 | 0.15 | 97 | 1007.5 |
| 20260509122824 | 53 | 138 | 0.9 | 2.6 | 0.00 | 0.41 | 0.15 | 97 | 1007.6 |
| 20260509122703 | 53 | 135 | 0.9 | 2.6 | 0.00 | 0.41 | 0.15 | 97 | 1007.7 |
| 20260509122403 | 53 | 145 | 0.9 | 3.5 | 0.00 | 0.41 | 0.15 | 97 | 1007.6 |
| 20260509122103 | 53 | 145 | 0.9 | 3.5 | 0.00 | 0.41 | 0.15 | 97 | 1007.6 |
| 20260509122003 | 53 | 141 | 0.9 | 3.5 | 0.00 | 0.41 | 0.15 | 97 | 1007.6 |
| 20260509121924 | 53 | 142 | 0.9 | 3.5 | 0.00 | 0.41 | 0.15 | 97 | 1007.6 |
| 20260509121824 | 53 | 141 | 0.9 | 3.5 | 0.00 | 0.41 | 0.15 | 97 | 1007.5 |
| 20260509121603 | 53 | 139 | 0.9 | 3.5 | 0.00 | 0.41 | 0.15 | 97 | 1007.7 |
| 20260509121203 | 53 | 129 | 0.9 | 2.6 | 0.00 | 0.41 | 0.15 | 97 | 1007.5 |
| 20260509121024 | 53 | 128 | 0.9 | 2.6 | 0.00 | 0.41 | 0.15 | 97 | 1007.6 |
| 20260509120924 | 53 | 131 | 0.9 | 2.6 | 0.00 | 0.41 | 0.15 | 97 | 1007.4 |
| 20260509120803 | 53 | 133 | 0.9 | 2.6 | 0.00 | 0.41 | 0.15 | 97 | 1007.3 |
| 20260509120703 | 53 | 133 | 0.9 | 2.6 | 0.00 | 0.41 | 0.15 | 97 | 1007.6 |
| 20260509120603 | 53 | 132 | 0.9 | 2.6 | 0.00 | 0.41 | 0.15 | 97 | 1007.5 |
| 20260509120403 | 53 | 131 | 0.9 | 2.6 | 0.00 | 0.41 | 0.15 | 97 | 1007.5 |
| 20260509120303 | 53 | 131 | 0.9 | 2.6 | 0.00 | 0.41 | 0.15 | 97 | 1007.5 |
| 20260509115924 | 52 | 132 | 0.9 | 2.6 | 0.00 | 0.41 | 0.15 | 97 | 1007.4 |
| 20260509115824 | 52 | 129 | 0.9 | 3.5 | 0.00 | 0.41 | 0.15 | 97 | 1007.3 |
| 20260509115703 | 52 | 129 | 0.9 | 3.5 | 0.00 | 0.41 | 0.15 | 97 | 1007.4 |
| 20260509115503 | 52 | 129 | 0.9 | 3.5 | 0.00 | 0.41 | 0.15 | 97 | 1007.5 |
| 20260509115103 | 52 | 136 | 0.9 | 3.5 | 0.00 | 0.41 | 0.15 | 97 | 1007.6 |
| 20260509115024 | 52 | 137 | 0.9 | 3.5 | 0.00 | 0.41 | 0.15 | 97 | 1007.6 |
| 20260509114824 | 52 | 142 | 0.9 | 2.6 | 0.00 | 0.41 | 0.15 | 97 | 1007.5 |
| 20260509114303 | 52 | 138 | 0.9 | 2.6 | 0.00 | 0.41 | 0.15 | 97 | 1007.7 |
| 20260509114203 | 52 | 135 | 0.9 | 2.6 | 0.00 | 0.41 | 0.15 | 97 | 1007.5 |
| 20260509113903 | 52 | 129 | 0.9 | 2.6 | 0.00 | 0.41 | 0.15 | 97 | 1007.6 |
| 20260509113803 | 52 | 127 | 0.9 | 2.6 | 0.00 | 0.41 | 0.15 | 97 | 1007.5 |
| 20260509113703 | 52 | 122 | 0.9 | 2.6 | 0.00 | 0.41 | 0.15 | 97 | 1007.7 |
| 20260509113603 | 52 | 124 | 0.9 | 2.6 | 0.00 | 0.41 | 0.15 | 97 | 1007.5 |
| 20260509113403 | 52 | 127 | 0.9 | 2.6 | 0.00 | 0.41 | 0.15 | 98 | 1007.5 |
| 20260509113303 | 52 | 124 | 0.9 | 2.6 | 0.00 | 0.41 | 0.15 | 98 | 1007.6 |
| 20260509113203 | 52 | 124 | 0.9 | 2.6 | 0.00 | 0.41 | 0.15 | 98 | 1007.6 |
| 20260509113103 | 52 | 122 | 0.9 | 2.6 | 0.00 | 0.41 | 0.15 | 97 | 1007.6 |
| 20260509113003 | 52 | 124 | 0.9 | 2.6 | 0.00 | 0.41 | 0.15 | 98 | 1007.4 |
| 20260509112903 | 52 | 127 | 0.9 | 2.6 | 0.00 | 0.41 | 0.15 | 98 | 1007.4 |
| 20260509112803 | 52 | 127 | 0.9 | 2.6 | 0.00 | 0.41 | 0.15 | 98 | 1007.5 |
| 20260509112603 | 52 | 131 | 0.9 | 2.6 | 0.00 | 0.41 | 0.15 | 98 | 1007.3 |
| 20260509112503 | 52 | 134 | 0.9 | 2.6 | 0.00 | 0.41 | 0.15 | 98 | 1007.6 |
| 20260509112403 | 52 | 135 | 0.9 | 2.6 | 0.00 | 0.41 | 0.15 | 98 | 1007.5 |
| 20260509112103 | 52 | 134 | 0.9 | 3.5 | 0.00 | 0.41 | 0.15 | 98 | 1007.5 |
| 20260509111803 | 52 | 130 | 0.9 | 3.5 | 0.00 | 0.41 | 0.15 | 98 | 1007.5 |
| 20260509111703 | 52 | 129 | 0.9 | 3.5 | 0.00 | 0.41 | 0.15 | 98 | 1007.4 |
| 20260509111303 | 52 | 128 | 0.9 | 2.6 | 0.00 | 0.41 | 0.15 | 98 | 1007.3 |
| 20260509111224 | 52 | 127 | 0.9 | 2.6 | 0.00 | 0.41 | 0.15 | 97 | 1007.5 |
| 20260509111003 | 51 | 128 | 0.0 | 2.6 | 0.00 | 0.41 | 0.15 | 98 | 1007.6 |
| 20260509110924 | 51 | 129 | 0.0 | 2.6 | 0.00 | 0.41 | 0.15 | 98 | 1007.3 |
| 20260509110603 | 51 | 134 | 0.0 | 2.6 | 0.00 | 0.41 | 0.15 | 98 | 1007.3 |
| 20260509110403 | 51 | 134 | 0.0 | 2.6 | 0.00 | 0.41 | 0.15 | 98 | 1007.2 |
| 20260509110303 | 51 | 124 | 0.0 | 0.9 | 0.00 | 0.41 | 0.15 | 98 | 1007.3 |
| 20260509110203 | 51 | 134 | 0.0 | 2.6 | 0.00 | 0.41 | 0.15 | 98 | 1007.4 |
| 20260509110003 | 51 | 140 | 0.0 | 2.6 | 0.00 | 0.41 | 0.15 | 98 | 1007.3 |
| 20260509105903 | 51 | 140 | 0.0 | 2.6 | 0.00 | 0.41 | 0.15 | 97 | 1007.3 |
| 20260509105703 | 51 | 137 | 0.9 | 2.6 | 0.00 | 0.41 | 0.15 | 97 | 1007.3 |
| 20260509105404 | 51 | 136 | 0.9 | 2.6 | 0.00 | 0.41 | 0.15 | 97 | 1007.4 |
| 20260509105306 | 51 | 135 | 0.9 | 2.6 | 0.00 | 0.41 | 0.15 | 97 | 1007.4 |
| 20260509105126 | 51 | 131 | 0.0 | 2.6 | 0.00 | 0.41 | 0.15 | 97 | 1007.3 |
| 20260509105003 | 51 | 126 | 0.0 | 1.7 | 0.00 | 0.41 | 0.15 | 97 | 1007.3 |
| 20260509104903 | 51 | 126 | 0.0 | 1.7 | 0.00 | 0.41 | 0.15 | 97 | 1007.3 |
| 20260509104803 | 51 | 121 | 0.0 | 1.7 | 0.00 | 0.41 | 0.15 | 97 | 1007.1 |